SAS353 EPWA-KJFK
Flight info
| Callsign | SAS353 |
|---|---|
| Flight time | 8h 57m |
| Altitude | 36000 |
| Route | OLILA L621 GRUDA L23 WSN DCT LONAM N610 NATEB Y96 TLA DCT TRN DCT MAC DCT LUTOV/N0471F380 DCT RESNO/M081F380 DCT 55N020W 55N030W 54N040W 52N050W DCT TUDEP/N0470F380 N526A TOPPS DCT ENE PARCH3 |
| Aircraft | A339/H-SADE1E2E3GHIJ3J5M1P2RWXY/LB2D1 |
Departure
| Time | 2026-05-08 21:48 |
|---|---|
| Airport | Warsaw Chopin Airport (EPWA) |
Arrival
| Time | 2026-05-09 06:45 |
|---|---|
| Airport | John F. Kennedy International Airport (KJFK) |
| Time | Latitude | Longitude | Altitude | Speed | Heading |
|---|---|---|---|---|---|
| 2026-05-08 21:11 | 52.17284 | 20.96869 | 368 ft | 0 kts | 64° |
| 2026-05-08 21:32 | 52.17282 | 20.96862 | 367 ft | 1 kts | 64° |
| 2026-05-08 21:33 | 52.17279 | 20.96851 | 371 ft | 1 kts | 64° |
| 2026-05-08 21:33 | 52.17276 | 20.96840 | 370 ft | 1 kts | 64° |
| 2026-05-08 21:33 | 52.17273 | 20.96830 | 368 ft | 1 kts | 64° |
| 2026-05-08 21:33 | 52.17270 | 20.96819 | 372 ft | 1 kts | 64° |
| 2026-05-08 21:34 | 52.17268 | 20.96812 | 371 ft | 0 kts | 64° |
| 2026-05-08 21:34 | 52.17265 | 20.96803 | 372 ft | 1 kts | 64° |
| 2026-05-08 21:35 | 52.17262 | 20.96792 | 367 ft | 1 kts | 64° |
| 2026-05-08 21:35 | 52.17259 | 20.96782 | 367 ft | 0 kts | 64° |
| 2026-05-08 21:35 | 52.17256 | 20.96777 | 367 ft | 1 kts | 75° |
| 2026-05-08 21:35 | 52.17256 | 20.96775 | 367 ft | 0 kts | 78° |
| 2026-05-08 21:36 | 52.17255 | 20.96771 | 370 ft | 1 kts | 80° |
| 2026-05-08 21:36 | 52.17253 | 20.96760 | 369 ft | 1 kts | 86° |
| 2026-05-08 21:36 | 52.17251 | 20.96748 | 367 ft | 1 kts | 109° |
| 2026-05-08 21:36 | 52.17251 | 20.96740 | 371 ft | 0 kts | 125° |
| 2026-05-08 21:39 | 52.17249 | 20.96743 | 367 ft | 2 kts | 127° |
| 2026-05-08 21:39 | 52.17236 | 20.96759 | 374 ft | 4 kts | 139° |
| 2026-05-08 21:40 | 52.17203 | 20.96794 | 371 ft | 7 kts | 151° |
| 2026-05-08 21:40 | 52.17174 | 20.96780 | 373 ft | 4 kts | 206° |
| 2026-05-08 21:40 | 52.17148 | 20.96733 | 370 ft | 7 kts | 231° |
| 2026-05-08 21:41 | 52.17034 | 20.96709 | 371 ft | 12 kts | 155° |
| 2026-05-08 21:41 | 52.16953 | 20.96777 | 367 ft | 14 kts | 153° |
| 2026-05-08 21:41 | 52.16856 | 20.96862 | 369 ft | 17 kts | 152° |
| 2026-05-08 21:41 | 52.16747 | 20.96957 | 371 ft | 17 kts | 152° |
| 2026-05-08 21:42 | 52.16650 | 20.97043 | 366 ft | 12 kts | 151° |
| 2026-05-08 21:42 | 52.16643 | 20.97049 | 366 ft | 0 kts | 151° |
| 2026-05-08 21:42 | 52.16634 | 20.97057 | 366 ft | 5 kts | 151° |
| 2026-05-08 21:42 | 52.16587 | 20.97099 | 368 ft | 14 kts | 152° |
| 2026-05-08 21:43 | 52.16484 | 20.97188 | 367 ft | 18 kts | 152° |
| 2026-05-08 21:43 | 52.16368 | 20.97289 | 367 ft | 20 kts | 152° |
| 2026-05-08 21:43 | 52.16247 | 20.97395 | 367 ft | 20 kts | 152° |
| 2026-05-08 21:43 | 52.16126 | 20.97499 | 368 ft | 19 kts | 152° |
| 2026-05-08 21:44 | 52.16008 | 20.97602 | 369 ft | 19 kts | 152° |
| 2026-05-08 21:44 | 52.15896 | 20.97700 | 372 ft | 16 kts | 152° |
| 2026-05-08 21:44 | 52.15797 | 20.97786 | 367 ft | 16 kts | 151° |
| 2026-05-08 21:44 | 52.15698 | 20.97872 | 371 ft | 16 kts | 152° |
| 2026-05-08 21:45 | 52.15645 | 20.97993 | 368 ft | 10 kts | 79° |
| 2026-05-08 21:45 | 52.15694 | 20.98083 | 366 ft | 12 kts | 39° |
| 2026-05-08 21:45 | 52.15771 | 20.98151 | 366 ft | 14 kts | 25° |
| 2026-05-08 21:45 | 52.15863 | 20.98217 | 364 ft | 15 kts | 24° |
| 2026-05-08 21:46 | 52.15964 | 20.98284 | 362 ft | 16 kts | 17° |
| 2026-05-08 21:46 | 52.15999 | 20.98303 | 362 ft | 0 kts | 19° |
| 2026-05-08 21:46 | 52.16002 | 20.98305 | 362 ft | 3 kts | 19° |
| 2026-05-08 21:46 | 52.16075 | 20.98352 | 365 ft | 18 kts | 20° |
| 2026-05-08 21:47 | 52.16134 | 20.98282 | 360 ft | 11 kts | 291° |
| 2026-05-08 21:47 | 52.16266 | 20.97811 | 366 ft | 86 kts | 295° |
| 2026-05-08 21:47 | 52.16617 | 20.96567 | 373 ft | 152 kts | 293° |
| 2026-05-08 21:47 | 52.17086 | 20.94791 | 706 ft | 179 kts | 294° |
| 2026-05-08 21:48 | 52.17538 | 20.92881 | 1423 ft | 182 kts | 291° |
| 2026-05-08 21:48 | 52.17983 | 20.90929 | 2116 ft | 185 kts | 295° |
| 2026-05-08 21:48 | 52.18766 | 20.89282 | 2783 ft | 186 kts | 326° |
| 2026-05-08 21:48 | 52.19958 | 20.88573 | 3471 ft | 187 kts | 347° |
| 2026-05-08 21:49 | 52.21246 | 20.88072 | 4125 ft | 189 kts | 340° |
| 2026-05-08 21:49 | 52.22389 | 20.87105 | 4749 ft | 191 kts | 322° |
| 2026-05-08 21:49 | 52.23398 | 20.85538 | 5010 ft | 214 kts | 311° |
| 2026-05-08 21:49 | 52.24467 | 20.83601 | 4996 ft | 242 kts | 310° |
| 2026-05-08 21:50 | 52.25619 | 20.81549 | 4997 ft | 247 kts | 313° |
| 2026-05-08 21:50 | 52.26945 | 20.79746 | 4960 ft | 250 kts | 315° |
| 2026-05-08 21:50 | 52.27881 | 20.77354 | 5096 ft | 257 kts | 289° |
| 2026-05-08 21:50 | 52.28305 | 20.74502 | 5669 ft | 259 kts | 280° |
| 2026-05-08 21:51 | 52.28643 | 20.71590 | 6290 ft | 262 kts | 281° |
| 2026-05-08 21:51 | 52.29058 | 20.68679 | 6897 ft | 265 kts | 284° |
| 2026-05-08 21:51 | 52.29567 | 20.65779 | 7515 ft | 266 kts | 287° |
| 2026-05-08 21:51 | 52.30136 | 20.62885 | 8140 ft | 268 kts | 288° |
| 2026-05-08 21:52 | 52.30734 | 20.59989 | 8774 ft | 270 kts | 288° |
| 2026-05-08 21:52 | 52.31345 | 20.57071 | 9406 ft | 272 kts | 288° |
| 2026-05-08 21:52 | 52.31958 | 20.54131 | 10055 ft | 275 kts | 288° |
| 2026-05-08 21:52 | 52.32577 | 20.51145 | 10476 ft | 284 kts | 288° |
| 2026-05-08 21:53 | 52.33227 | 20.47985 | 10638 ft | 302 kts | 288° |
| 2026-05-08 21:53 | 52.33914 | 20.44635 | 10808 ft | 319 kts | 288° |
| 2026-05-08 21:53 | 52.34626 | 20.41156 | 11252 ft | 324 kts | 288° |
| 2026-05-08 21:53 | 52.35345 | 20.37644 | 11828 ft | 327 kts | 288° |
| 2026-05-08 21:54 | 52.36067 | 20.34107 | 12389 ft | 329 kts | 288° |
| 2026-05-08 21:54 | 52.36548 | 20.31750 | 12762 ft | 330 kts | 288° |
| 2026-05-08 21:54 | 52.37276 | 20.28172 | 13329 ft | 333 kts | 288° |
| 2026-05-08 21:54 | 52.38008 | 20.24561 | 13899 ft | 335 kts | 287° |
| 2026-05-08 21:55 | 52.38981 | 20.19748 | 14569 ft | 338 kts | 287° |
| 2026-05-08 21:55 | 52.39721 | 20.16083 | 15068 ft | 340 kts | 287° |
| 2026-05-08 21:55 | 52.40221 | 20.13598 | 15416 ft | 341 kts | 287° |
| 2026-05-08 21:56 | 52.41713 | 20.06170 | 16414 ft | 345 kts | 287° |
| 2026-05-08 21:56 | 52.42464 | 20.02421 | 16912 ft | 347 kts | 287° |
| 2026-05-08 21:56 | 52.43219 | 19.98647 | 17401 ft | 350 kts | 287° |
| 2026-05-08 21:56 | 52.43977 | 19.94846 | 17897 ft | 352 kts | 287° |
| 2026-05-08 21:57 | 52.44739 | 19.91022 | 18386 ft | 354 kts | 287° |
| 2026-05-08 21:57 | 52.45504 | 19.87170 | 18828 ft | 356 kts | 287° |
| 2026-05-08 21:57 | 52.46273 | 19.83292 | 19265 ft | 358 kts | 287° |
| 2026-05-08 21:57 | 52.47045 | 19.79391 | 19701 ft | 361 kts | 287° |
| 2026-05-08 21:58 | 52.47810 | 19.75520 | 20136 ft | 363 kts | 287° |
| 2026-05-08 21:58 | 52.48587 | 19.71578 | 20584 ft | 365 kts | 287° |
| 2026-05-08 21:58 | 52.49368 | 19.67606 | 21019 ft | 367 kts | 287° |
| 2026-05-08 21:58 | 52.50154 | 19.63602 | 21447 ft | 369 kts | 287° |
| 2026-05-08 21:59 | 52.50943 | 19.59572 | 21889 ft | 371 kts | 287° |
| 2026-05-08 21:59 | 52.51735 | 19.55524 | 22332 ft | 374 kts | 287° |
| 2026-05-08 21:59 | 52.52530 | 19.51445 | 22785 ft | 376 kts | 287° |
| 2026-05-08 21:59 | 52.53330 | 19.47339 | 23241 ft | 379 kts | 287° |
| 2026-05-08 22:00 | 52.54132 | 19.43210 | 23672 ft | 381 kts | 287° |
| 2026-05-08 22:00 | 52.54939 | 19.39047 | 24068 ft | 383 kts | 287° |
| 2026-05-08 22:00 | 52.55748 | 19.34864 | 24463 ft | 385 kts | 287° |
| 2026-05-08 22:00 | 52.56558 | 19.30666 | 24840 ft | 387 kts | 287° |
| 2026-05-08 22:01 | 52.57370 | 19.26444 | 25237 ft | 388 kts | 287° |
| 2026-05-08 22:01 | 52.58186 | 19.22201 | 25621 ft | 390 kts | 287° |
| 2026-05-08 22:01 | 52.59003 | 19.17938 | 26003 ft | 392 kts | 287° |
| 2026-05-08 22:01 | 52.59823 | 19.13651 | 26375 ft | 394 kts | 287° |
| 2026-05-08 22:02 | 52.60646 | 19.09336 | 26751 ft | 396 kts | 287° |
| 2026-05-08 22:02 | 52.61471 | 19.05000 | 27107 ft | 398 kts | 287° |
| 2026-05-08 22:02 | 52.62301 | 19.00639 | 27478 ft | 400 kts | 287° |
| 2026-05-08 22:02 | 52.63131 | 18.96276 | 27872 ft | 401 kts | 286° |
| 2026-05-08 22:03 | 52.63962 | 18.91872 | 28182 ft | 404 kts | 286° |
| 2026-05-08 22:03 | 52.64794 | 18.87453 | 28531 ft | 406 kts | 286° |
| 2026-05-08 22:03 | 52.65630 | 18.83003 | 28862 ft | 408 kts | 286° |
| 2026-05-08 22:03 | 52.66471 | 18.78522 | 29184 ft | 410 kts | 286° |
| 2026-05-08 22:04 | 52.67314 | 18.74023 | 29518 ft | 412 kts | 286° |
| 2026-05-08 22:04 | 52.68157 | 18.69506 | 29850 ft | 414 kts | 286° |
| 2026-05-08 22:04 | 52.69005 | 18.64959 | 30157 ft | 416 kts | 286° |
| 2026-05-08 22:04 | 52.69856 | 18.60380 | 30426 ft | 419 kts | 286° |
| 2026-05-08 22:05 | 52.70709 | 18.55781 | 30692 ft | 421 kts | 286° |
| 2026-05-08 22:05 | 52.71564 | 18.51156 | 30971 ft | 423 kts | 286° |
| 2026-05-08 22:05 | 52.72425 | 18.46495 | 31228 ft | 426 kts | 286° |
| 2026-05-08 22:05 | 52.73276 | 18.41874 | 31476 ft | 428 kts | 286° |
| 2026-05-08 22:06 | 52.74142 | 18.37155 | 31754 ft | 431 kts | 286° |
| 2026-05-08 22:06 | 52.75010 | 18.32411 | 32014 ft | 433 kts | 285° |
| 2026-05-08 22:06 | 52.75881 | 18.27645 | 32267 ft | 435 kts | 285° |
| 2026-05-08 22:06 | 52.76757 | 18.22840 | 32515 ft | 438 kts | 285° |
| 2026-05-08 22:07 | 52.77633 | 18.18019 | 32745 ft | 440 kts | 285° |
| 2026-05-08 22:07 | 52.78511 | 18.13172 | 32951 ft | 441 kts | 285° |
| 2026-05-08 22:07 | 52.79390 | 18.08306 | 33136 ft | 443 kts | 285° |
| 2026-05-08 22:07 | 52.80273 | 18.03409 | 33295 ft | 445 kts | 285° |
| 2026-05-08 22:08 | 52.81155 | 17.98502 | 33464 ft | 446 kts | 285° |
| 2026-05-08 22:08 | 52.82038 | 17.93578 | 33608 ft | 448 kts | 285° |
| 2026-05-08 22:08 | 52.82923 | 17.88632 | 33767 ft | 448 kts | 285° |
| 2026-05-08 22:08 | 52.83803 | 17.83696 | 33939 ft | 449 kts | 285° |
| 2026-05-08 22:09 | 52.84685 | 17.78737 | 34136 ft | 448 kts | 285° |
| 2026-05-08 22:09 | 52.85562 | 17.73793 | 34294 ft | 448 kts | 285° |
| 2026-05-08 22:09 | 52.86439 | 17.68834 | 34426 ft | 449 kts | 285° |
| 2026-05-08 22:09 | 52.87314 | 17.63873 | 34572 ft | 449 kts | 285° |
| 2026-05-08 22:10 | 52.88187 | 17.58907 | 34690 ft | 450 kts | 285° |
| 2026-05-08 22:10 | 52.89059 | 17.53934 | 34828 ft | 450 kts | 285° |
| 2026-05-08 22:10 | 52.89930 | 17.48954 | 34968 ft | 451 kts | 285° |
| 2026-05-08 22:10 | 52.90801 | 17.43959 | 35082 ft | 451 kts | 285° |
| 2026-05-08 22:11 | 52.91671 | 17.38957 | 35236 ft | 451 kts | 285° |
| 2026-05-08 22:11 | 52.92538 | 17.33957 | 35349 ft | 452 kts | 285° |
| 2026-05-08 22:11 | 52.93404 | 17.28946 | 35484 ft | 452 kts | 285° |
| 2026-05-08 22:11 | 52.94269 | 17.23931 | 35601 ft | 453 kts | 285° |
| 2026-05-08 22:12 | 52.95133 | 17.18905 | 35736 ft | 453 kts | 285° |
| 2026-05-08 22:12 | 52.95984 | 17.13941 | 35863 ft | 453 kts | 284° |
| 2026-05-08 22:12 | 52.96844 | 17.08916 | 35999 ft | 454 kts | 284° |
| 2026-05-08 22:12 | 52.97703 | 17.03876 | 36104 ft | 454 kts | 284° |
| 2026-05-08 22:13 | 52.98563 | 16.98820 | 36197 ft | 455 kts | 284° |
| 2026-05-08 22:13 | 53.00271 | 16.88725 | 36206 ft | 454 kts | 284° |
| 2026-05-08 22:14 | 53.01971 | 16.78623 | 36207 ft | 454 kts | 284° |
| 2026-05-08 22:14 | 53.03663 | 16.68507 | 36207 ft | 455 kts | 284° |
| 2026-05-08 22:15 | 53.05349 | 16.58373 | 36209 ft | 455 kts | 284° |
| 2026-05-08 22:15 | 53.07023 | 16.48246 | 36203 ft | 455 kts | 284° |
| 2026-05-08 22:16 | 53.08693 | 16.38089 | 36206 ft | 455 kts | 284° |
| 2026-05-08 22:16 | 53.10352 | 16.27930 | 36212 ft | 455 kts | 284° |
| 2026-05-08 22:17 | 53.12005 | 16.17756 | 36212 ft | 455 kts | 284° |
| 2026-05-08 22:17 | 53.13648 | 16.07575 | 36214 ft | 456 kts | 284° |
| 2026-05-08 22:18 | 53.15285 | 15.97376 | 36213 ft | 456 kts | 284° |
| 2026-05-08 22:18 | 53.16913 | 15.87162 | 36212 ft | 456 kts | 284° |
| 2026-05-08 22:19 | 53.18534 | 15.76935 | 36215 ft | 456 kts | 284° |
| 2026-05-08 22:19 | 53.20147 | 15.66699 | 36220 ft | 456 kts | 284° |
| 2026-05-08 22:20 | 53.21751 | 15.56451 | 36220 ft | 457 kts | 283° |
| 2026-05-08 22:20 | 53.23347 | 15.46190 | 36220 ft | 457 kts | 283° |
| 2026-05-08 22:21 | 53.24925 | 15.35984 | 36221 ft | 457 kts | 283° |
| 2026-05-08 22:21 | 53.26504 | 15.25706 | 36222 ft | 457 kts | 283° |
| 2026-05-08 22:22 | 53.28076 | 15.15408 | 36225 ft | 457 kts | 283° |
| 2026-05-08 22:22 | 53.29638 | 15.05110 | 36225 ft | 457 kts | 283° |
| 2026-05-08 22:23 | 53.31193 | 14.94795 | 36229 ft | 457 kts | 283° |
| 2026-05-08 22:23 | 53.32739 | 14.84468 | 36229 ft | 458 kts | 283° |
| 2026-05-08 22:24 | 53.34277 | 14.74132 | 36232 ft | 458 kts | 283° |
| 2026-05-08 22:24 | 53.35806 | 14.63784 | 36232 ft | 458 kts | 283° |
| 2026-05-08 22:25 | 53.37327 | 14.53423 | 36234 ft | 458 kts | 283° |
| 2026-05-08 22:25 | 53.38840 | 14.43055 | 36231 ft | 459 kts | 283° |
| 2026-05-08 22:26 | 53.40344 | 14.32672 | 36235 ft | 459 kts | 283° |
| 2026-05-08 22:26 | 53.41841 | 14.22271 | 36234 ft | 459 kts | 283° |
| 2026-05-08 22:27 | 53.43329 | 14.11860 | 36235 ft | 459 kts | 283° |
| 2026-05-08 22:27 | 53.44808 | 14.01441 | 36237 ft | 459 kts | 283° |
| 2026-05-08 22:28 | 53.46278 | 13.91016 | 36242 ft | 459 kts | 283° |
| 2026-05-08 22:28 | 53.47740 | 13.80575 | 36239 ft | 460 kts | 282° |
| 2026-05-08 22:29 | 53.49184 | 13.70195 | 36238 ft | 460 kts | 282° |
| 2026-05-08 22:29 | 53.50629 | 13.59734 | 36242 ft | 460 kts | 282° |
| 2026-05-08 22:30 | 53.52075 | 13.49190 | 36245 ft | 460 kts | 282° |
| 2026-05-08 22:30 | 53.53492 | 13.38785 | 36241 ft | 460 kts | 282° |
| 2026-05-08 22:31 | 53.54911 | 13.28286 | 36246 ft | 460 kts | 282° |
| 2026-05-08 22:31 | 53.56321 | 13.17782 | 36241 ft | 461 kts | 282° |
| 2026-05-08 22:32 | 53.57723 | 13.07267 | 36245 ft | 461 kts | 282° |
| 2026-05-08 22:32 | 53.59116 | 12.96740 | 36242 ft | 461 kts | 282° |
| 2026-05-08 22:33 | 53.60499 | 12.86204 | 36247 ft | 461 kts | 282° |
| 2026-05-08 22:33 | 53.61874 | 12.75665 | 36249 ft | 461 kts | 282° |
| 2026-05-08 22:34 | 53.63240 | 12.65110 | 36251 ft | 461 kts | 282° |
| 2026-05-08 22:34 | 53.64596 | 12.54548 | 36243 ft | 461 kts | 282° |
| 2026-05-08 22:35 | 53.65945 | 12.43972 | 36248 ft | 461 kts | 282° |
| 2026-05-08 22:35 | 53.67283 | 12.33391 | 36241 ft | 462 kts | 282° |
| 2026-05-08 22:36 | 53.68615 | 12.22793 | 36237 ft | 462 kts | 282° |
| 2026-05-08 22:36 | 53.69943 | 12.12181 | 36244 ft | 462 kts | 282° |
| 2026-05-08 22:37 | 53.71266 | 12.01557 | 36245 ft | 463 kts | 282° |
| 2026-05-08 22:37 | 53.72549 | 11.90912 | 36245 ft | 463 kts | 279° |
| 2026-05-08 22:38 | 53.73218 | 11.80100 | 36243 ft | 463 kts | 272° |
| 2026-05-08 22:38 | 53.73131 | 11.69236 | 36240 ft | 463 kts | 267° |
| 2026-05-08 22:39 | 53.72875 | 11.58365 | 36242 ft | 463 kts | 268° |
| 2026-05-08 22:39 | 53.72625 | 11.47495 | 36240 ft | 464 kts | 268° |
| 2026-05-08 22:40 | 53.72340 | 11.36617 | 36240 ft | 464 kts | 267° |
| 2026-05-08 22:40 | 53.72031 | 11.25738 | 36242 ft | 464 kts | 267° |
| 2026-05-08 22:41 | 53.71715 | 11.14857 | 36243 ft | 464 kts | 267° |
| 2026-05-08 22:41 | 53.71392 | 11.04058 | 36238 ft | 464 kts | 267° |
| 2026-05-08 22:42 | 53.71112 | 10.94941 | 36239 ft | 464 kts | 267° |
| 2026-05-08 22:42 | 53.70711 | 10.82305 | 36236 ft | 464 kts | 267° |
| 2026-05-08 22:43 | 53.70414 | 10.73185 | 36240 ft | 464 kts | 267° |
| 2026-05-08 22:43 | 53.70052 | 10.62382 | 36240 ft | 464 kts | 267° |
| 2026-05-08 22:44 | 53.69678 | 10.51513 | 36240 ft | 464 kts | 266° |
| 2026-05-08 22:44 | 53.69294 | 10.40641 | 36235 ft | 464 kts | 266° |
| 2026-05-08 22:45 | 53.68898 | 10.29777 | 36231 ft | 464 kts | 266° |
| 2026-05-08 22:45 | 53.67839 | 10.19055 | 36235 ft | 464 kts | 255° |
| 2026-05-08 22:46 | 53.65675 | 10.08812 | 36238 ft | 464 kts | 247° |
| 2026-05-08 22:46 | 53.63162 | 9.98790 | 36240 ft | 464 kts | 248° |
| 2026-05-08 22:47 | 53.60664 | 9.88751 | 36239 ft | 464 kts | 248° |
| 2026-05-08 22:47 | 53.58155 | 9.78735 | 36241 ft | 464 kts | 247° |
| 2026-05-08 22:48 | 53.55636 | 9.68732 | 36240 ft | 464 kts | 247° |
| 2026-05-08 22:48 | 53.53107 | 9.58738 | 36236 ft | 464 kts | 247° |
| 2026-05-08 22:49 | 53.50570 | 9.48770 | 36228 ft | 464 kts | 247° |
| 2026-05-08 22:49 | 53.46743 | 9.33843 | 36219 ft | 464 kts | 247° |
| 2026-05-08 22:50 | 53.44206 | 9.23982 | 36207 ft | 463 kts | 247° |
| 2026-05-08 22:50 | 53.41646 | 9.14078 | 36210 ft | 463 kts | 247° |
| 2026-05-08 22:51 | 53.39079 | 9.04190 | 36208 ft | 462 kts | 247° |
| 2026-05-08 22:51 | 53.36567 | 8.94275 | 36200 ft | 462 kts | 252° |
| 2026-05-08 22:52 | 53.35522 | 8.83730 | 36200 ft | 461 kts | 270° |
| 2026-05-08 22:52 | 53.36425 | 8.73124 | 36191 ft | 462 kts | 282° |
| 2026-05-08 22:53 | 53.37479 | 8.64618 | 36197 ft | 462 kts | 281° |
| 2026-05-08 22:53 | 53.38746 | 8.54070 | 36195 ft | 462 kts | 281° |
| 2026-05-08 22:54 | 53.39995 | 8.43508 | 36196 ft | 462 kts | 281° |
| 2026-05-08 22:54 | 53.41236 | 8.32927 | 36192 ft | 463 kts | 281° |
| 2026-05-08 22:55 | 53.42468 | 8.22337 | 36187 ft | 463 kts | 280° |
| 2026-05-08 22:55 | 53.43692 | 8.11736 | 36182 ft | 463 kts | 280° |
| 2026-05-08 22:56 | 53.44908 | 8.01111 | 36198 ft | 463 kts | 280° |
| 2026-05-08 22:56 | 53.46106 | 7.90559 | 36188 ft | 464 kts | 280° |
| 2026-05-08 22:57 | 53.47303 | 7.79920 | 36185 ft | 464 kts | 280° |
| 2026-05-08 22:57 | 53.48492 | 7.69268 | 36187 ft | 464 kts | 279° |
| 2026-05-08 22:58 | 53.49672 | 7.58604 | 36189 ft | 464 kts | 279° |
| 2026-05-08 22:58 | 53.50842 | 7.47935 | 36180 ft | 465 kts | 279° |
| 2026-05-08 22:59 | 53.52004 | 7.37251 | 36193 ft | 465 kts | 279° |
| 2026-05-08 22:59 | 53.53156 | 7.26563 | 36188 ft | 465 kts | 279° |
| 2026-05-08 23:00 | 53.54300 | 7.15855 | 36180 ft | 465 kts | 279° |
| 2026-05-08 23:00 | 53.55436 | 7.05130 | 36184 ft | 466 kts | 279° |
| 2026-05-08 23:01 | 53.56562 | 6.94394 | 36179 ft | 466 kts | 279° |
| 2026-05-08 23:01 | 53.57680 | 6.83646 | 36185 ft | 467 kts | 278° |
| 2026-05-08 23:02 | 53.58790 | 6.72868 | 36187 ft | 467 kts | 278° |
| 2026-05-08 23:02 | 53.59888 | 6.62086 | 36189 ft | 468 kts | 278° |
| 2026-05-08 23:03 | 53.60974 | 6.51356 | 36191 ft | 467 kts | 278° |
| 2026-05-08 23:03 | 53.62057 | 6.40561 | 36190 ft | 467 kts | 278° |
| 2026-05-08 23:04 | 53.63128 | 6.29761 | 36190 ft | 468 kts | 278° |
| 2026-05-08 23:04 | 53.64190 | 6.18955 | 36189 ft | 467 kts | 278° |
| 2026-05-08 23:05 | 53.65241 | 6.08153 | 36190 ft | 467 kts | 278° |
| 2026-05-08 23:05 | 53.66283 | 5.97340 | 36191 ft | 467 kts | 278° |
| 2026-05-08 23:06 | 53.67315 | 5.86526 | 36194 ft | 467 kts | 278° |
| 2026-05-08 23:06 | 53.68337 | 5.75715 | 36191 ft | 467 kts | 277° |
| 2026-05-08 23:07 | 53.69348 | 5.64901 | 36191 ft | 467 kts | 277° |
| 2026-05-08 23:07 | 53.70349 | 5.54087 | 36193 ft | 466 kts | 277° |
| 2026-05-08 23:08 | 53.71341 | 5.43260 | 36196 ft | 466 kts | 277° |
| 2026-05-08 23:08 | 53.72322 | 5.32442 | 36193 ft | 466 kts | 277° |
| 2026-05-08 23:09 | 53.73295 | 5.21615 | 36198 ft | 466 kts | 277° |
| 2026-05-08 23:09 | 53.74255 | 5.10798 | 36201 ft | 466 kts | 277° |
| 2026-05-08 23:10 | 53.75207 | 4.99966 | 36198 ft | 466 kts | 277° |
| 2026-05-08 23:10 | 53.76149 | 4.89135 | 36202 ft | 466 kts | 277° |
| 2026-05-08 23:11 | 53.77080 | 4.78304 | 36198 ft | 466 kts | 277° |
| 2026-05-08 23:11 | 53.77995 | 4.67539 | 36204 ft | 466 kts | 277° |
| 2026-05-08 23:12 | 53.78908 | 4.56696 | 36202 ft | 466 kts | 277° |
| 2026-05-08 23:12 | 53.79809 | 4.45853 | 36207 ft | 465 kts | 277° |
| 2026-05-08 23:13 | 53.80701 | 4.35011 | 36206 ft | 465 kts | 276° |
| 2026-05-08 23:13 | 53.81582 | 4.24182 | 36201 ft | 465 kts | 276° |
| 2026-05-08 23:14 | 53.82453 | 4.13349 | 36204 ft | 464 kts | 276° |
| 2026-05-08 23:14 | 53.83319 | 4.02519 | 36206 ft | 464 kts | 276° |
| 2026-05-08 23:15 | 53.84599 | 3.91826 | 36205 ft | 465 kts | 287° |
| 2026-05-08 23:15 | 53.86999 | 3.81639 | 36203 ft | 466 kts | 291° |
| 2026-05-08 23:16 | 53.89453 | 3.71475 | 36200 ft | 466 kts | 291° |
| 2026-05-08 23:16 | 53.91897 | 3.61304 | 36205 ft | 465 kts | 290° |
| 2026-05-08 23:17 | 53.94327 | 3.51127 | 36202 ft | 466 kts | 290° |
| 2026-05-08 23:17 | 53.96746 | 3.40936 | 36205 ft | 465 kts | 290° |
| 2026-05-08 23:18 | 53.99155 | 3.30736 | 36207 ft | 465 kts | 290° |
| 2026-05-08 23:18 | 54.01540 | 3.20593 | 36205 ft | 465 kts | 290° |
| 2026-05-08 23:19 | 54.03927 | 3.10392 | 36211 ft | 465 kts | 290° |
| 2026-05-08 23:19 | 54.06308 | 3.00166 | 36218 ft | 464 kts | 290° |
| 2026-05-08 23:20 | 54.08537 | 2.90545 | 36200 ft | 464 kts | 290° |
| 2026-05-08 23:20 | 54.10898 | 2.80314 | 36216 ft | 464 kts | 290° |
| 2026-05-08 23:21 | 54.13248 | 2.70078 | 36200 ft | 464 kts | 290° |
| 2026-05-08 23:21 | 54.15588 | 2.59836 | 36199 ft | 463 kts | 289° |
| 2026-05-08 23:22 | 54.17916 | 2.49594 | 36190 ft | 463 kts | 289° |
| 2026-05-08 23:22 | 54.20235 | 2.39346 | 36215 ft | 462 kts | 289° |
| 2026-05-08 23:23 | 54.22543 | 2.29097 | 36210 ft | 462 kts | 289° |
| 2026-05-08 23:23 | 54.24841 | 2.18841 | 36204 ft | 462 kts | 289° |
| 2026-05-08 23:24 | 54.27126 | 2.08593 | 36192 ft | 461 kts | 289° |
| 2026-05-08 23:24 | 54.29403 | 1.98330 | 36206 ft | 461 kts | 289° |
| 2026-05-08 23:25 | 54.31667 | 1.88074 | 36208 ft | 460 kts | 289° |
| 2026-05-08 23:25 | 54.33922 | 1.77813 | 36209 ft | 460 kts | 289° |
| 2026-05-08 23:26 | 54.36149 | 1.67624 | 36191 ft | 460 kts | 289° |
| 2026-05-08 23:26 | 54.38381 | 1.57363 | 36200 ft | 459 kts | 288° |
| 2026-05-08 23:27 | 54.40602 | 1.47099 | 36185 ft | 458 kts | 288° |
| 2026-05-08 23:27 | 54.42812 | 1.36837 | 36198 ft | 458 kts | 288° |
| 2026-05-08 23:28 | 54.45011 | 1.26575 | 36200 ft | 457 kts | 288° |
| 2026-05-08 23:28 | 54.47197 | 1.16324 | 36196 ft | 457 kts | 288° |
| 2026-05-08 23:29 | 54.49374 | 1.06059 | 36189 ft | 456 kts | 288° |
| 2026-05-08 23:29 | 54.51539 | 0.95802 | 36194 ft | 456 kts | 288° |
| 2026-05-08 23:30 | 54.53695 | 0.85538 | 36193 ft | 456 kts | 288° |
| 2026-05-08 23:30 | 54.55477 | 0.77011 | 36196 ft | 455 kts | 288° |
| 2026-05-08 23:31 | 54.57612 | 0.66753 | 36193 ft | 455 kts | 287° |
| 2026-05-08 23:31 | 54.59735 | 0.56493 | 36196 ft | 454 kts | 287° |
| 2026-05-08 23:32 | 54.62189 | 0.44571 | 36189 ft | 454 kts | 287° |
| 2026-05-08 23:32 | 54.63950 | 0.35976 | 36192 ft | 453 kts | 287° |
| 2026-05-08 23:33 | 54.66038 | 0.25729 | 36190 ft | 452 kts | 287° |
| 2026-05-08 23:33 | 54.68118 | 0.15471 | 36192 ft | 452 kts | 287° |
| 2026-05-08 23:34 | 54.70185 | 0.05224 | 36185 ft | 451 kts | 287° |
| 2026-05-08 23:34 | 54.72213 | -0.04880 | 36193 ft | 437 kts | 287° |
| 2026-05-08 23:35 | 54.74173 | -0.14691 | 36186 ft | 431 kts | 286° |
| 2026-05-08 23:35 | 54.76130 | -0.24556 | 36188 ft | 433 kts | 286° |
| 2026-05-08 23:36 | 54.78077 | -0.34409 | 36188 ft | 433 kts | 286° |
| 2026-05-08 23:36 | 54.80017 | -0.44274 | 36188 ft | 432 kts | 286° |
| 2026-05-08 23:37 | 54.81950 | -0.54151 | 36186 ft | 432 kts | 286° |
| 2026-05-08 23:37 | 54.83873 | -0.64031 | 36182 ft | 432 kts | 285° |
| 2026-05-08 23:38 | 54.85787 | -0.73912 | 36180 ft | 432 kts | 285° |
| 2026-05-08 23:38 | 54.87692 | -0.83802 | 36178 ft | 432 kts | 285° |
| 2026-05-08 23:39 | 54.89587 | -0.93692 | 36178 ft | 432 kts | 285° |
| 2026-05-08 23:39 | 54.91476 | -1.03594 | 36179 ft | 432 kts | 285° |
| 2026-05-08 23:40 | 54.93355 | -1.13501 | 36177 ft | 431 kts | 285° |
| 2026-05-08 23:40 | 54.95226 | -1.23418 | 36180 ft | 431 kts | 285° |
| 2026-05-08 23:41 | 54.97088 | -1.33338 | 36180 ft | 431 kts | 284° |
| 2026-05-08 23:41 | 54.98943 | -1.43273 | 36181 ft | 431 kts | 284° |
| 2026-05-08 23:42 | 55.00791 | -1.53203 | 36186 ft | 431 kts | 284° |
| 2026-05-08 23:42 | 55.02636 | -1.63153 | 36187 ft | 431 kts | 284° |
| 2026-05-08 23:43 | 55.04830 | -1.72830 | 36183 ft | 436 kts | 294° |
| 2026-05-08 23:43 | 55.07895 | -1.81987 | 36182 ft | 437 kts | 296° |
| 2026-05-08 23:44 | 55.10962 | -1.91160 | 36182 ft | 437 kts | 295° |
| 2026-05-08 23:44 | 55.14010 | -2.00361 | 36182 ft | 437 kts | 295° |
| 2026-05-08 23:45 | 55.17044 | -2.09568 | 36184 ft | 437 kts | 295° |
| 2026-05-08 23:45 | 55.20079 | -2.18810 | 36176 ft | 437 kts | 295° |
| 2026-05-08 23:46 | 55.23097 | -2.28037 | 36174 ft | 437 kts | 295° |
| 2026-05-08 23:46 | 55.26113 | -2.37291 | 36174 ft | 437 kts | 295° |
| 2026-05-08 23:47 | 55.29119 | -2.46550 | 36179 ft | 437 kts | 295° |
| 2026-05-08 23:47 | 55.32117 | -2.55823 | 36175 ft | 437 kts | 294° |
| 2026-05-08 23:48 | 55.35086 | -2.65043 | 36181 ft | 436 kts | 294° |
| 2026-05-08 23:48 | 55.38066 | -2.74330 | 36193 ft | 436 kts | 294° |
| 2026-05-08 23:49 | 55.41040 | -2.83628 | 36193 ft | 436 kts | 294° |
| 2026-05-08 23:49 | 55.43986 | -2.92962 | 36194 ft | 434 kts | 291° |
| 2026-05-08 23:50 | 55.46226 | -3.02742 | 36193 ft | 428 kts | 282° |
| 2026-05-08 23:50 | 55.47528 | -3.12915 | 36190 ft | 424 kts | 276° |
| 2026-05-08 23:51 | 55.48620 | -3.23134 | 36195 ft | 424 kts | 277° |
| 2026-05-08 23:51 | 55.49301 | -3.33403 | 36193 ft | 420 kts | 268° |
| 2026-05-08 23:52 | 55.48857 | -3.43608 | 36191 ft | 417 kts | 258° |
| 2026-05-08 23:52 | 55.47622 | -3.53576 | 36202 ft | 416 kts | 256° |
| 2026-05-08 23:53 | 55.46389 | -3.63467 | 36211 ft | 416 kts | 256° |
| 2026-05-08 23:53 | 55.45138 | -3.73422 | 36209 ft | 416 kts | 256° |
| 2026-05-08 23:54 | 55.43874 | -3.83375 | 36194 ft | 416 kts | 256° |
| 2026-05-08 23:55 | 55.41959 | -3.98286 | 36218 ft | 416 kts | 255° |
| 2026-05-08 23:55 | 55.40672 | -4.08230 | 36218 ft | 416 kts | 255° |
| 2026-05-08 23:56 | 55.39377 | -4.18168 | 36202 ft | 417 kts | 255° |
| 2026-05-08 23:56 | 55.38075 | -4.28090 | 36211 ft | 416 kts | 255° |
| 2026-05-08 23:57 | 55.36765 | -4.38006 | 36218 ft | 416 kts | 255° |
| 2026-05-08 23:57 | 55.35448 | -4.47907 | 36209 ft | 416 kts | 255° |
| 2026-05-08 23:58 | 55.34121 | -4.57811 | 36210 ft | 416 kts | 255° |
| 2026-05-08 23:58 | 55.32788 | -4.67705 | 36217 ft | 416 kts | 255° |
| 2026-05-08 23:59 | 55.32046 | -4.77795 | 36219 ft | 420 kts | 266° |
| 2026-05-08 23:59 | 55.32641 | -4.88054 | 36219 ft | 426 kts | 278° |
| 2026-05-09 00:00 | 55.34068 | -4.98180 | 36217 ft | 427 kts | 279° |
| 2026-05-09 00:00 | 55.35461 | -5.08322 | 36227 ft | 427 kts | 278° |
| 2026-05-09 00:01 | 55.36834 | -5.18478 | 36229 ft | 427 kts | 278° |
| 2026-05-09 00:01 | 55.38200 | -5.28643 | 36234 ft | 427 kts | 278° |
| 2026-05-09 00:02 | 55.39557 | -5.38811 | 36238 ft | 427 kts | 278° |
| 2026-05-09 00:02 | 55.40898 | -5.48929 | 36241 ft | 427 kts | 278° |
| 2026-05-09 00:03 | 55.42212 | -5.59117 | 36241 ft | 425 kts | 276° |
| 2026-05-09 00:03 | 55.42817 | -5.69391 | 36240 ft | 420 kts | 267° |
| 2026-05-09 00:04 | 55.42605 | -5.79640 | 36245 ft | 418 kts | 263° |
| 2026-05-09 00:04 | 55.42327 | -5.89870 | 36248 ft | 419 kts | 264° |
| 2026-05-09 00:05 | 55.42047 | -6.00115 | 36255 ft | 419 kts | 263° |
| 2026-05-09 00:05 | 55.41751 | -6.10355 | 36255 ft | 419 kts | 263° |
| 2026-05-09 00:06 | 55.41443 | -6.20598 | 36259 ft | 419 kts | 263° |
| 2026-05-09 00:06 | 55.41125 | -6.30846 | 36262 ft | 419 kts | 263° |
| 2026-05-09 00:07 | 55.40800 | -6.41087 | 36261 ft | 419 kts | 263° |
| 2026-05-09 00:07 | 55.40466 | -6.51326 | 36262 ft | 419 kts | 263° |
| 2026-05-09 00:08 | 55.40125 | -6.61506 | 36261 ft | 420 kts | 263° |
| 2026-05-09 00:08 | 55.39774 | -6.71754 | 36273 ft | 420 kts | 263° |
| 2026-05-09 00:09 | 55.39414 | -6.82004 | 36271 ft | 420 kts | 263° |
| 2026-05-09 00:09 | 55.39046 | -6.92250 | 36278 ft | 420 kts | 263° |
| 2026-05-09 00:10 | 55.38668 | -7.02509 | 36272 ft | 420 kts | 263° |
| 2026-05-09 00:10 | 55.38282 | -7.12755 | 36273 ft | 420 kts | 263° |
| 2026-05-09 00:11 | 55.37888 | -7.22990 | 36279 ft | 420 kts | 263° |
| 2026-05-09 00:11 | 55.37485 | -7.33239 | 36275 ft | 420 kts | 262° |
| 2026-05-09 00:12 | 55.37074 | -7.43485 | 36281 ft | 420 kts | 262° |
| 2026-05-09 00:12 | 55.36654 | -7.53720 | 36281 ft | 420 kts | 262° |
| 2026-05-09 00:13 | 55.36225 | -7.63960 | 36278 ft | 420 kts | 262° |
| 2026-05-09 00:13 | 55.35791 | -7.74121 | 36289 ft | 420 kts | 262° |
| 2026-05-09 00:14 | 55.35379 | -7.83599 | 36287 ft | 420 kts | 262° |
| 2026-05-09 00:14 | 55.34925 | -7.93840 | 36293 ft | 420 kts | 262° |
| 2026-05-09 00:15 | 55.34463 | -8.04070 | 36291 ft | 420 kts | 262° |
| 2026-05-09 00:15 | 55.33991 | -8.14312 | 36294 ft | 421 kts | 262° |
| 2026-05-09 00:16 | 55.33511 | -8.24550 | 36294 ft | 421 kts | 262° |
| 2026-05-09 00:16 | 55.33023 | -8.34790 | 36298 ft | 421 kts | 262° |
| 2026-05-09 00:17 | 55.32525 | -8.45039 | 36298 ft | 421 kts | 262° |
| 2026-05-09 00:17 | 55.32019 | -8.55291 | 36301 ft | 421 kts | 262° |
| 2026-05-09 00:18 | 55.31503 | -8.65545 | 36303 ft | 422 kts | 262° |
| 2026-05-09 00:18 | 55.30979 | -8.75804 | 36302 ft | 422 kts | 262° |
| 2026-05-09 00:19 | 55.30446 | -8.86063 | 36304 ft | 422 kts | 262° |
| 2026-05-09 00:19 | 55.29903 | -8.96335 | 36307 ft | 423 kts | 262° |
| 2026-05-09 00:20 | 55.29352 | -9.06608 | 36307 ft | 423 kts | 261° |
| 2026-05-09 00:20 | 55.28887 | -9.15146 | 36309 ft | 423 kts | 261° |
| 2026-05-09 00:21 | 55.28319 | -9.25439 | 36305 ft | 424 kts | 261° |
| 2026-05-09 00:21 | 55.27741 | -9.35730 | 36307 ft | 424 kts | 261° |
| 2026-05-09 00:22 | 55.27155 | -9.46031 | 36313 ft | 424 kts | 261° |
| 2026-05-09 00:22 | 55.26559 | -9.56331 | 36310 ft | 425 kts | 261° |
| 2026-05-09 00:23 | 55.25954 | -9.66645 | 36313 ft | 425 kts | 261° |
| 2026-05-09 00:23 | 55.25340 | -9.76963 | 36317 ft | 426 kts | 261° |
| 2026-05-09 00:24 | 55.24718 | -9.87283 | 36322 ft | 426 kts | 261° |
| 2026-05-09 00:24 | 55.24091 | -9.97620 | 36323 ft | 427 kts | 261° |
| 2026-05-09 00:25 | 55.23605 | -10.07999 | 36323 ft | 428 kts | 264° |
| 2026-05-09 00:25 | 55.23374 | -10.18376 | 36319 ft | 429 kts | 265° |
| 2026-05-09 00:26 | 55.23110 | -10.28831 | 36326 ft | 430 kts | 264° |
| 2026-05-09 00:26 | 55.22806 | -10.39290 | 36330 ft | 430 kts | 264° |
| 2026-05-09 00:27 | 55.22482 | -10.49763 | 36324 ft | 431 kts | 264° |
| 2026-05-09 00:27 | 55.22149 | -10.60244 | 36327 ft | 431 kts | 264° |
| 2026-05-09 00:28 | 55.21807 | -10.70745 | 36330 ft | 432 kts | 264° |
| 2026-05-09 00:28 | 55.21455 | -10.81254 | 36338 ft | 433 kts | 264° |
| 2026-05-09 00:29 | 55.21094 | -10.91775 | 36338 ft | 433 kts | 264° |
| 2026-05-09 00:29 | 55.20723 | -11.02318 | 36342 ft | 434 kts | 264° |
| 2026-05-09 00:30 | 55.20343 | -11.12862 | 36340 ft | 434 kts | 264° |
| 2026-05-09 00:30 | 55.19952 | -11.23422 | 36339 ft | 435 kts | 264° |
| 2026-05-09 00:31 | 55.19552 | -11.34000 | 36341 ft | 436 kts | 264° |
| 2026-05-09 00:31 | 55.19143 | -11.44595 | 36347 ft | 436 kts | 264° |
| 2026-05-09 00:32 | 55.18723 | -11.55210 | 36349 ft | 437 kts | 264° |
| 2026-05-09 00:32 | 55.18293 | -11.65834 | 36351 ft | 438 kts | 264° |
| 2026-05-09 00:33 | 55.17856 | -11.76415 | 36350 ft | 439 kts | 264° |
| 2026-05-09 00:33 | 55.17407 | -11.87072 | 36355 ft | 440 kts | 264° |
| 2026-05-09 00:34 | 55.16946 | -11.97757 | 36357 ft | 441 kts | 264° |
| 2026-05-09 00:34 | 55.16476 | -12.08458 | 36356 ft | 442 kts | 264° |
| 2026-05-09 00:35 | 55.15996 | -12.19175 | 36360 ft | 443 kts | 264° |
| 2026-05-09 00:35 | 55.15505 | -12.29917 | 36362 ft | 443 kts | 264° |
| 2026-05-09 00:36 | 55.15003 | -12.40675 | 36363 ft | 444 kts | 264° |
| 2026-05-09 00:36 | 55.14491 | -12.51455 | 36367 ft | 445 kts | 264° |
| 2026-05-09 00:37 | 55.13969 | -12.62245 | 36367 ft | 446 kts | 264° |
| 2026-05-09 00:37 | 55.13435 | -12.73065 | 36367 ft | 447 kts | 264° |
| 2026-05-09 00:38 | 55.12896 | -12.83820 | 36369 ft | 448 kts | 264° |
| 2026-05-09 00:38 | 55.12341 | -12.94671 | 36367 ft | 448 kts | 264° |
| 2026-05-09 00:39 | 55.11777 | -13.05527 | 36373 ft | 449 kts | 264° |
| 2026-05-09 00:39 | 55.11201 | -13.16413 | 36376 ft | 450 kts | 264° |
| 2026-05-09 00:40 | 55.10615 | -13.27301 | 36383 ft | 451 kts | 264° |
| 2026-05-09 00:40 | 55.10018 | -13.38208 | 36381 ft | 452 kts | 264° |
| 2026-05-09 00:41 | 55.09103 | -13.54607 | 36387 ft | 453 kts | 264° |
| 2026-05-09 00:41 | 55.08479 | -13.65556 | 36386 ft | 454 kts | 264° |
| 2026-05-09 00:42 | 55.07843 | -13.76532 | 36388 ft | 455 kts | 264° |
| 2026-05-09 00:42 | 55.07197 | -13.87516 | 36396 ft | 455 kts | 264° |
| 2026-05-09 00:43 | 55.06541 | -13.98502 | 36393 ft | 456 kts | 264° |
| 2026-05-09 00:43 | 55.05873 | -14.09502 | 36397 ft | 456 kts | 264° |
| 2026-05-09 00:44 | 55.05200 | -14.20443 | 36403 ft | 457 kts | 264° |
| 2026-05-09 00:44 | 55.04510 | -14.31469 | 36397 ft | 457 kts | 264° |
| 2026-05-09 00:45 | 55.03810 | -14.42510 | 36397 ft | 458 kts | 264° |
| 2026-05-09 00:45 | 55.03099 | -14.53552 | 36400 ft | 459 kts | 265° |
| 2026-05-09 00:46 | 55.02377 | -14.64610 | 36400 ft | 459 kts | 265° |
| 2026-05-09 00:46 | 55.01644 | -14.75683 | 36402 ft | 460 kts | 265° |
| 2026-05-09 00:47 | 55.00903 | -14.86766 | 36407 ft | 461 kts | 265° |
| 2026-05-09 00:47 | 55.00155 | -14.97867 | 36408 ft | 462 kts | 265° |
| 2026-05-09 00:48 | 55.00106 | -15.09007 | 36408 ft | 460 kts | 274° |
| 2026-05-09 00:48 | 55.00365 | -15.20161 | 36409 ft | 461 kts | 274° |
| 2026-05-09 00:49 | 55.00595 | -15.31342 | 36413 ft | 463 kts | 274° |
| 2026-05-09 00:49 | 55.00796 | -15.42483 | 36415 ft | 463 kts | 274° |
| 2026-05-09 00:50 | 55.00981 | -15.53729 | 36418 ft | 464 kts | 274° |
| 2026-05-09 00:50 | 55.01158 | -15.64988 | 36434 ft | 465 kts | 274° |
| 2026-05-09 00:51 | 55.01325 | -15.76279 | 36417 ft | 466 kts | 274° |
| 2026-05-09 00:51 | 55.01481 | -15.87589 | 36418 ft | 467 kts | 273° |
| 2026-05-09 00:52 | 55.01626 | -15.98928 | 36435 ft | 468 kts | 273° |
| 2026-05-09 00:52 | 55.01762 | -16.10281 | 36424 ft | 469 kts | 273° |
| 2026-05-09 00:53 | 55.01886 | -16.21650 | 36433 ft | 470 kts | 273° |
| 2026-05-09 00:53 | 55.02000 | -16.32966 | 36432 ft | 470 kts | 273° |
| 2026-05-09 00:54 | 55.02104 | -16.44377 | 36441 ft | 471 kts | 273° |
| 2026-05-09 00:54 | 55.02198 | -16.55799 | 36441 ft | 472 kts | 273° |
| 2026-05-09 00:55 | 55.02280 | -16.67229 | 36447 ft | 472 kts | 273° |
| 2026-05-09 00:55 | 55.02353 | -16.78673 | 36449 ft | 472 kts | 274° |
| 2026-05-09 00:56 | 55.02414 | -16.90129 | 36451 ft | 473 kts | 274° |
| 2026-05-09 00:56 | 55.02465 | -17.01599 | 36448 ft | 473 kts | 274° |
| 2026-05-09 00:57 | 55.02505 | -17.13079 | 36453 ft | 474 kts | 274° |
| 2026-05-09 00:57 | 55.02535 | -17.24570 | 36455 ft | 474 kts | 274° |
| 2026-05-09 00:58 | 55.02553 | -17.36072 | 36458 ft | 475 kts | 274° |
| 2026-05-09 00:58 | 55.02561 | -17.47581 | 36461 ft | 475 kts | 274° |
| 2026-05-09 00:59 | 55.02557 | -17.59099 | 36462 ft | 475 kts | 274° |
| 2026-05-09 00:59 | 55.02543 | -17.70624 | 36469 ft | 476 kts | 274° |
| 2026-05-09 01:00 | 55.02519 | -17.82077 | 36466 ft | 476 kts | 274° |
| 2026-05-09 01:00 | 55.02483 | -17.93605 | 36468 ft | 476 kts | 274° |
| 2026-05-09 01:01 | 55.02436 | -18.05139 | 36478 ft | 476 kts | 274° |
| 2026-05-09 01:01 | 55.02379 | -18.16670 | 36468 ft | 476 kts | 274° |
| 2026-05-09 01:02 | 55.02310 | -18.28201 | 36476 ft | 476 kts | 274° |
| 2026-05-09 01:02 | 55.02231 | -18.39733 | 36479 ft | 476 kts | 274° |
| 2026-05-09 01:03 | 55.02141 | -18.51264 | 36481 ft | 476 kts | 274° |
| 2026-05-09 01:03 | 55.02040 | -18.62798 | 36482 ft | 476 kts | 273° |
| 2026-05-09 01:04 | 55.01929 | -18.74320 | 36485 ft | 475 kts | 273° |
| 2026-05-09 01:04 | 55.01806 | -18.85849 | 36488 ft | 475 kts | 273° |
| 2026-05-09 01:05 | 55.01673 | -18.97360 | 36484 ft | 475 kts | 273° |
| 2026-05-09 01:06 | 55.01453 | -19.14617 | 36485 ft | 475 kts | 273° |
| 2026-05-09 01:06 | 55.01292 | -19.26120 | 36492 ft | 475 kts | 273° |
| 2026-05-09 01:07 | 55.01121 | -19.37614 | 36492 ft | 475 kts | 273° |
| 2026-05-09 01:07 | 55.00939 | -19.49116 | 36489 ft | 475 kts | 273° |
| 2026-05-09 01:08 | 55.00747 | -19.60527 | 36495 ft | 475 kts | 273° |
| 2026-05-09 01:08 | 55.00543 | -19.72037 | 36502 ft | 475 kts | 273° |
| 2026-05-09 01:09 | 55.00328 | -19.83545 | 36499 ft | 475 kts | 273° |
| 2026-05-09 01:09 | 55.00109 | -19.95050 | 36503 ft | 475 kts | 273° |
| 2026-05-09 01:10 | 55.00036 | -20.06533 | 36501 ft | 471 kts | 278° |
| 2026-05-09 01:10 | 55.00588 | -20.17886 | 36505 ft | 470 kts | 281° |
| 2026-05-09 01:11 | 55.01045 | -20.27330 | 36503 ft | 471 kts | 280° |
| 2026-05-09 01:11 | 55.01515 | -20.38717 | 36506 ft | 472 kts | 279° |
| 2026-05-09 01:12 | 55.01952 | -20.50136 | 36508 ft | 472 kts | 279° |
| 2026-05-09 01:12 | 55.02375 | -20.61558 | 36513 ft | 472 kts | 279° |
| 2026-05-09 01:13 | 55.02783 | -20.72982 | 36515 ft | 473 kts | 279° |
| 2026-05-09 01:13 | 55.03179 | -20.84423 | 36516 ft | 473 kts | 279° |
| 2026-05-09 01:14 | 55.03565 | -20.95874 | 36521 ft | 473 kts | 279° |
| 2026-05-09 01:14 | 55.03939 | -21.07331 | 36520 ft | 473 kts | 279° |
| 2026-05-09 01:15 | 55.04304 | -21.18802 | 36522 ft | 474 kts | 279° |
| 2026-05-09 01:15 | 55.04659 | -21.30274 | 36526 ft | 474 kts | 279° |
| 2026-05-09 01:16 | 55.05001 | -21.41747 | 36525 ft | 474 kts | 279° |
| 2026-05-09 01:16 | 55.05332 | -21.53224 | 36526 ft | 474 kts | 279° |
| 2026-05-09 01:17 | 55.05809 | -21.70460 | 36529 ft | 474 kts | 279° |
| 2026-05-09 01:17 | 55.06114 | -21.81956 | 36523 ft | 474 kts | 279° |
| 2026-05-09 01:18 | 55.06408 | -21.93451 | 36538 ft | 474 kts | 279° |
| 2026-05-09 01:18 | 55.06690 | -22.04868 | 36527 ft | 474 kts | 279° |
| 2026-05-09 01:19 | 55.06962 | -22.16365 | 36528 ft | 474 kts | 279° |
| 2026-05-09 01:19 | 55.07224 | -22.27868 | 36541 ft | 474 kts | 279° |
| 2026-05-09 01:20 | 55.07475 | -22.39354 | 36545 ft | 474 kts | 279° |
| 2026-05-09 01:20 | 55.07715 | -22.50856 | 36539 ft | 474 kts | 279° |
| 2026-05-09 01:21 | 55.07944 | -22.62362 | 36538 ft | 474 kts | 280° |
| 2026-05-09 01:21 | 55.08162 | -22.73871 | 36545 ft | 474 kts | 280° |
| 2026-05-09 01:22 | 55.08370 | -22.85381 | 36543 ft | 474 kts | 280° |
| 2026-05-09 01:22 | 55.08567 | -22.96892 | 36550 ft | 474 kts | 280° |
| 2026-05-09 01:23 | 55.08753 | -23.08400 | 36547 ft | 474 kts | 280° |
| 2026-05-09 01:23 | 55.08928 | -23.19916 | 36551 ft | 475 kts | 280° |
| 2026-05-09 01:24 | 55.09092 | -23.31429 | 36557 ft | 475 kts | 280° |
| 2026-05-09 01:24 | 55.09246 | -23.42960 | 36562 ft | 475 kts | 280° |
| 2026-05-09 01:25 | 55.09388 | -23.54411 | 36564 ft | 475 kts | 280° |
| 2026-05-09 01:25 | 55.09519 | -23.65945 | 36566 ft | 475 kts | 280° |
| 2026-05-09 01:26 | 55.09641 | -23.77476 | 36562 ft | 475 kts | 280° |
| 2026-05-09 01:26 | 55.09751 | -23.89016 | 36567 ft | 475 kts | 280° |
| 2026-05-09 01:27 | 55.09850 | -24.00550 | 36569 ft | 475 kts | 280° |
| 2026-05-09 01:27 | 55.09939 | -24.12095 | 36568 ft | 475 kts | 280° |
| 2026-05-09 01:28 | 55.10017 | -24.23635 | 36572 ft | 475 kts | 280° |
| 2026-05-09 01:28 | 55.10083 | -24.35183 | 36577 ft | 475 kts | 280° |
| 2026-05-09 01:29 | 55.10139 | -24.46724 | 36578 ft | 475 kts | 280° |
| 2026-05-09 01:29 | 55.10184 | -24.58266 | 36582 ft | 475 kts | 280° |
| 2026-05-09 01:30 | 55.10218 | -24.69814 | 36582 ft | 475 kts | 280° |
| 2026-05-09 01:30 | 55.10241 | -24.81363 | 36586 ft | 475 kts | 280° |
| 2026-05-09 01:31 | 55.10254 | -24.92898 | 36585 ft | 475 kts | 280° |
| 2026-05-09 01:31 | 55.10255 | -25.04438 | 36585 ft | 475 kts | 280° |
| 2026-05-09 01:32 | 55.10245 | -25.15970 | 36587 ft | 475 kts | 280° |
| 2026-05-09 01:32 | 55.10225 | -25.27422 | 36585 ft | 475 kts | 280° |
| 2026-05-09 01:33 | 55.10194 | -25.38959 | 36579 ft | 475 kts | 280° |
| 2026-05-09 01:33 | 55.10151 | -25.50564 | 36593 ft | 475 kts | 280° |
| 2026-05-09 01:34 | 55.10099 | -25.62014 | 36593 ft | 475 kts | 280° |
| 2026-05-09 01:34 | 55.10035 | -25.73539 | 36594 ft | 475 kts | 280° |
| 2026-05-09 01:35 | 55.09960 | -25.85065 | 36594 ft | 474 kts | 280° |
| 2026-05-09 01:35 | 55.09875 | -25.96577 | 36596 ft | 474 kts | 280° |
| 2026-05-09 01:36 | 55.09779 | -26.08095 | 36599 ft | 474 kts | 280° |
| 2026-05-09 01:36 | 55.09671 | -26.19607 | 36594 ft | 474 kts | 279° |
| 2026-05-09 01:37 | 55.09552 | -26.31113 | 36596 ft | 474 kts | 279° |
| 2026-05-09 01:37 | 55.09423 | -26.42621 | 36596 ft | 474 kts | 279° |
| 2026-05-09 01:38 | 55.09283 | -26.54127 | 36600 ft | 474 kts | 279° |
| 2026-05-09 01:38 | 55.09133 | -26.65626 | 36600 ft | 474 kts | 279° |
| 2026-05-09 01:39 | 55.08972 | -26.77122 | 36601 ft | 474 kts | 279° |
| 2026-05-09 01:39 | 55.08799 | -26.88621 | 36604 ft | 474 kts | 279° |
| 2026-05-09 01:40 | 55.08618 | -27.00039 | 36599 ft | 474 kts | 279° |
| 2026-05-09 01:40 | 55.08424 | -27.11551 | 36611 ft | 474 kts | 279° |
| 2026-05-09 01:41 | 55.08219 | -27.23050 | 36604 ft | 474 kts | 279° |
| 2026-05-09 01:41 | 55.08003 | -27.34558 | 36611 ft | 474 kts | 279° |
| 2026-05-09 01:42 | 55.07777 | -27.46054 | 36608 ft | 474 kts | 279° |
| 2026-05-09 01:42 | 55.07540 | -27.57556 | 36611 ft | 474 kts | 279° |
| 2026-05-09 01:43 | 55.07292 | -27.69071 | 36614 ft | 474 kts | 278° |
| 2026-05-09 01:43 | 55.07033 | -27.80582 | 36612 ft | 475 kts | 278° |
| 2026-05-09 01:44 | 55.06763 | -27.92088 | 36617 ft | 475 kts | 278° |
| 2026-05-09 01:44 | 55.06482 | -28.03603 | 36613 ft | 475 kts | 278° |
| 2026-05-09 01:45 | 55.06191 | -28.15110 | 36616 ft | 475 kts | 278° |
| 2026-05-09 01:45 | 55.05888 | -28.26620 | 36619 ft | 475 kts | 278° |
| 2026-05-09 01:46 | 55.05576 | -28.38059 | 36614 ft | 475 kts | 278° |
| 2026-05-09 01:46 | 55.05252 | -28.49559 | 36620 ft | 475 kts | 278° |
| 2026-05-09 01:47 | 55.04917 | -28.61072 | 36620 ft | 475 kts | 277° |
| 2026-05-09 01:47 | 55.04571 | -28.72572 | 36621 ft | 475 kts | 277° |
| 2026-05-09 01:48 | 55.04214 | -28.84085 | 36623 ft | 475 kts | 277° |
| 2026-05-09 01:48 | 55.03846 | -28.95594 | 36623 ft | 475 kts | 277° |
| 2026-05-09 01:49 | 55.03467 | -29.07102 | 36623 ft | 476 kts | 277° |
| 2026-05-09 01:49 | 55.03077 | -29.18611 | 36626 ft | 476 kts | 277° |
| 2026-05-09 01:50 | 55.02676 | -29.30133 | 36625 ft | 476 kts | 276° |
| 2026-05-09 01:50 | 55.02264 | -29.41652 | 36626 ft | 476 kts | 276° |
| 2026-05-09 01:51 | 55.01841 | -29.53174 | 36626 ft | 476 kts | 276° |
| 2026-05-09 01:51 | 55.01411 | -29.64689 | 36626 ft | 476 kts | 276° |
| 2026-05-09 01:52 | 55.00975 | -29.76213 | 36625 ft | 476 kts | 276° |
| 2026-05-09 01:52 | 55.00530 | -29.87729 | 36628 ft | 477 kts | 275° |
| 2026-05-09 01:53 | 55.00054 | -29.99254 | 36628 ft | 478 kts | 275° |
| 2026-05-09 01:53 | 54.99333 | -30.10795 | 36626 ft | 479 kts | 273° |
| 2026-05-09 01:54 | 54.98657 | -30.22331 | 36626 ft | 478 kts | 274° |
| 2026-05-09 01:54 | 54.97998 | -30.33863 | 36624 ft | 478 kts | 273° |
| 2026-05-09 01:55 | 54.97319 | -30.45379 | 36630 ft | 478 kts | 273° |
| 2026-05-09 01:55 | 54.96629 | -30.56826 | 36627 ft | 478 kts | 272° |
| 2026-05-09 01:56 | 54.95918 | -30.68334 | 36638 ft | 478 kts | 272° |
| 2026-05-09 01:56 | 54.95192 | -30.79831 | 36629 ft | 478 kts | 272° |
| 2026-05-09 01:57 | 54.94455 | -30.91313 | 36626 ft | 477 kts | 272° |
| 2026-05-09 01:57 | 54.93709 | -31.02781 | 36628 ft | 477 kts | 272° |
| 2026-05-09 01:58 | 54.92951 | -31.14242 | 36626 ft | 477 kts | 272° |
| 2026-05-09 01:58 | 54.92184 | -31.25680 | 36625 ft | 476 kts | 271° |
| 2026-05-09 01:59 | 54.91539 | -31.35181 | 36623 ft | 476 kts | 271° |
| 2026-05-09 01:59 | 54.90754 | -31.46587 | 36625 ft | 475 kts | 271° |
| 2026-05-09 02:00 | 54.89959 | -31.57984 | 36622 ft | 475 kts | 271° |
| 2026-05-09 02:00 | 54.89154 | -31.69355 | 36620 ft | 474 kts | 271° |
| 2026-05-09 02:01 | 54.88340 | -31.80707 | 36621 ft | 473 kts | 271° |
| 2026-05-09 02:01 | 54.87517 | -31.92036 | 36613 ft | 473 kts | 271° |
| 2026-05-09 02:02 | 54.86684 | -32.03357 | 36611 ft | 472 kts | 270° |
| 2026-05-09 02:02 | 54.85848 | -32.14575 | 36615 ft | 472 kts | 270° |
| 2026-05-09 02:03 | 54.84995 | -32.25861 | 36613 ft | 471 kts | 270° |
| 2026-05-09 02:03 | 54.84133 | -32.37139 | 36613 ft | 471 kts | 270° |
| 2026-05-09 02:04 | 54.83261 | -32.48388 | 36610 ft | 471 kts | 270° |
| 2026-05-09 02:04 | 54.82380 | -32.59635 | 36613 ft | 470 kts | 270° |
| 2026-05-09 02:05 | 54.81488 | -32.70861 | 36610 ft | 470 kts | 269° |
| 2026-05-09 02:05 | 54.80588 | -32.82071 | 36608 ft | 469 kts | 269° |
| 2026-05-09 02:06 | 54.79678 | -32.93261 | 36602 ft | 469 kts | 269° |
| 2026-05-09 02:07 | 54.78296 | -33.10025 | 36601 ft | 468 kts | 269° |
| 2026-05-09 02:07 | 54.77362 | -33.21183 | 36597 ft | 468 kts | 269° |
| 2026-05-09 02:08 | 54.76419 | -33.32331 | 36609 ft | 467 kts | 268° |
| 2026-05-09 02:08 | 54.75467 | -33.43452 | 36603 ft | 467 kts | 268° |
| 2026-05-09 02:09 | 54.74506 | -33.54557 | 36598 ft | 466 kts | 268° |
| 2026-05-09 02:09 | 54.73536 | -33.65645 | 36597 ft | 465 kts | 268° |
| 2026-05-09 02:10 | 54.72565 | -33.76633 | 36593 ft | 465 kts | 268° |
| 2026-05-09 02:10 | 54.71577 | -33.87677 | 36587 ft | 464 kts | 268° |
| 2026-05-09 02:11 | 54.70581 | -33.98702 | 36587 ft | 464 kts | 268° |
| 2026-05-09 02:11 | 54.69576 | -34.09711 | 36587 ft | 463 kts | 267° |
| 2026-05-09 02:12 | 54.68563 | -34.20700 | 36583 ft | 463 kts | 267° |
| 2026-05-09 02:12 | 54.67540 | -34.31676 | 36582 ft | 462 kts | 267° |
| 2026-05-09 02:13 | 54.66509 | -34.42629 | 36582 ft | 462 kts | 267° |
| 2026-05-09 02:13 | 54.65468 | -34.53574 | 36577 ft | 461 kts | 267° |
| 2026-05-09 02:14 | 54.64419 | -34.64499 | 36576 ft | 461 kts | 266° |
| 2026-05-09 02:14 | 54.63362 | -34.75404 | 36572 ft | 461 kts | 266° |
| 2026-05-09 02:15 | 54.62295 | -34.86299 | 36566 ft | 460 kts | 266° |
| 2026-05-09 02:15 | 54.61218 | -34.97185 | 36569 ft | 460 kts | 266° |
| 2026-05-09 02:16 | 54.60133 | -35.08054 | 36562 ft | 460 kts | 266° |
| 2026-05-09 02:16 | 54.59038 | -35.18919 | 36558 ft | 460 kts | 266° |
| 2026-05-09 02:17 | 54.57941 | -35.29702 | 36562 ft | 460 kts | 266° |
| 2026-05-09 02:17 | 54.56828 | -35.40545 | 36553 ft | 460 kts | 265° |
| 2026-05-09 02:18 | 54.55705 | -35.51388 | 36558 ft | 460 kts | 265° |
| 2026-05-09 02:18 | 54.54571 | -35.62226 | 36554 ft | 460 kts | 265° |
| 2026-05-09 02:19 | 54.53428 | -35.73054 | 36547 ft | 460 kts | 265° |
| 2026-05-09 02:19 | 54.52276 | -35.83879 | 36544 ft | 460 kts | 265° |
| 2026-05-09 02:20 | 54.51113 | -35.94697 | 36541 ft | 460 kts | 264° |
| 2026-05-09 02:20 | 54.49941 | -36.05515 | 36541 ft | 460 kts | 264° |
| 2026-05-09 02:21 | 54.48759 | -36.16320 | 36533 ft | 460 kts | 264° |
| 2026-05-09 02:21 | 54.47568 | -36.27116 | 36530 ft | 460 kts | 264° |
| 2026-05-09 02:22 | 54.46368 | -36.37906 | 36528 ft | 459 kts | 264° |
| 2026-05-09 02:22 | 54.45158 | -36.48682 | 36525 ft | 459 kts | 264° |
| 2026-05-09 02:23 | 54.43939 | -36.59455 | 36520 ft | 459 kts | 264° |
| 2026-05-09 02:23 | 54.42711 | -36.70213 | 36522 ft | 459 kts | 263° |
| 2026-05-09 02:24 | 54.41474 | -36.80960 | 36509 ft | 458 kts | 263° |
| 2026-05-09 02:24 | 54.40229 | -36.91692 | 36512 ft | 458 kts | 263° |
| 2026-05-09 02:25 | 54.38975 | -37.02411 | 36506 ft | 458 kts | 263° |
| 2026-05-09 02:25 | 54.37713 | -37.13110 | 36504 ft | 458 kts | 263° |
| 2026-05-09 02:26 | 54.36450 | -37.23733 | 36501 ft | 457 kts | 263° |
| 2026-05-09 02:26 | 54.35162 | -37.34479 | 36497 ft | 457 kts | 262° |
| 2026-05-09 02:27 | 54.33873 | -37.45143 | 36490 ft | 457 kts | 262° |
| 2026-05-09 02:27 | 54.32575 | -37.55800 | 36487 ft | 457 kts | 262° |
| 2026-05-09 02:28 | 54.31278 | -37.66368 | 36480 ft | 456 kts | 262° |
| 2026-05-09 02:28 | 54.29963 | -37.76998 | 36479 ft | 456 kts | 262° |
| 2026-05-09 02:29 | 54.28640 | -37.87615 | 36477 ft | 456 kts | 261° |
| 2026-05-09 02:29 | 54.27308 | -37.98215 | 36471 ft | 456 kts | 261° |
| 2026-05-09 02:30 | 54.25968 | -38.08805 | 36464 ft | 455 kts | 261° |
| 2026-05-09 02:30 | 54.24619 | -38.19384 | 36460 ft | 455 kts | 261° |
| 2026-05-09 02:31 | 54.23262 | -38.29947 | 36458 ft | 455 kts | 261° |
| 2026-05-09 02:31 | 54.21896 | -38.40501 | 36453 ft | 454 kts | 261° |
| 2026-05-09 02:32 | 54.20520 | -38.51044 | 36452 ft | 454 kts | 260° |
| 2026-05-09 02:32 | 54.19147 | -38.61493 | 36445 ft | 454 kts | 260° |
| 2026-05-09 02:33 | 54.17758 | -38.71993 | 36440 ft | 453 kts | 260° |
| 2026-05-09 02:33 | 54.16361 | -38.82473 | 36434 ft | 453 kts | 260° |
| 2026-05-09 02:34 | 54.14957 | -38.92937 | 36428 ft | 452 kts | 259° |
| 2026-05-09 02:34 | 54.13545 | -39.03380 | 36425 ft | 452 kts | 259° |
| 2026-05-09 02:35 | 54.12126 | -39.13809 | 36420 ft | 451 kts | 259° |
| 2026-05-09 02:35 | 54.10697 | -39.24219 | 36412 ft | 451 kts | 259° |
| 2026-05-09 02:36 | 54.09262 | -39.34617 | 36406 ft | 450 kts | 259° |
| 2026-05-09 02:36 | 54.07818 | -39.44997 | 36402 ft | 451 kts | 259° |
| 2026-05-09 02:37 | 54.06366 | -39.55366 | 36397 ft | 450 kts | 259° |
| 2026-05-09 02:37 | 54.04909 | -39.65740 | 36381 ft | 451 kts | 258° |
| 2026-05-09 02:38 | 54.03445 | -39.76098 | 36379 ft | 449 kts | 258° |
| 2026-05-09 02:38 | 54.01984 | -39.86400 | 36373 ft | 448 kts | 258° |
| 2026-05-09 02:39 | 54.00510 | -39.96722 | 36369 ft | 449 kts | 258° |
| 2026-05-09 02:39 | 53.98918 | -40.06986 | 36362 ft | 449 kts | 256° |
| 2026-05-09 02:40 | 53.97341 | -40.17226 | 36358 ft | 447 kts | 257° |
| 2026-05-09 02:40 | 53.95801 | -40.27502 | 36355 ft | 448 kts | 257° |
| 2026-05-09 02:41 | 53.94261 | -40.37631 | 36352 ft | 445 kts | 257° |
| 2026-05-09 02:41 | 53.92698 | -40.47826 | 36341 ft | 446 kts | 257° |
| 2026-05-09 02:42 | 53.91132 | -40.57976 | 36338 ft | 445 kts | 256° |
| 2026-05-09 02:42 | 53.89546 | -40.68150 | 36330 ft | 448 kts | 256° |
| 2026-05-09 02:43 | 53.87947 | -40.78325 | 36323 ft | 446 kts | 256° |
| 2026-05-09 02:43 | 53.86345 | -40.88455 | 36315 ft | 444 kts | 256° |
| 2026-05-09 02:44 | 53.84735 | -40.98573 | 36312 ft | 446 kts | 256° |
| 2026-05-09 02:44 | 53.83116 | -41.08684 | 36307 ft | 444 kts | 255° |
| 2026-05-09 02:45 | 53.81494 | -41.18754 | 36300 ft | 443 kts | 255° |
| 2026-05-09 02:45 | 53.79863 | -41.28825 | 36299 ft | 445 kts | 255° |
| 2026-05-09 02:46 | 53.78219 | -41.38909 | 36289 ft | 444 kts | 255° |
| 2026-05-09 02:46 | 53.76579 | -41.48917 | 36286 ft | 440 kts | 255° |
| 2026-05-09 02:47 | 53.74933 | -41.58901 | 36284 ft | 443 kts | 254° |
| 2026-05-09 02:47 | 53.73267 | -41.68947 | 36277 ft | 444 kts | 254° |
| 2026-05-09 02:48 | 53.71600 | -41.78935 | 36267 ft | 446 kts | 254° |
| 2026-05-09 02:48 | 53.69913 | -41.88987 | 36261 ft | 445 kts | 253° |
| 2026-05-09 02:49 | 53.68221 | -41.99016 | 36256 ft | 443 kts | 253° |
| 2026-05-09 02:49 | 53.66522 | -42.09020 | 36255 ft | 445 kts | 253° |
| 2026-05-09 02:50 | 53.65095 | -42.17381 | 36245 ft | 446 kts | 253° |
| 2026-05-09 02:50 | 53.63375 | -42.27411 | 36241 ft | 445 kts | 253° |
| 2026-05-09 02:51 | 53.61647 | -42.37437 | 36235 ft | 445 kts | 252° |
| 2026-05-09 02:51 | 53.59907 | -42.47458 | 36228 ft | 446 kts | 252° |
| 2026-05-09 02:52 | 53.58167 | -42.57445 | 36224 ft | 442 kts | 252° |
| 2026-05-09 02:52 | 53.56424 | -42.67374 | 36218 ft | 444 kts | 252° |
| 2026-05-09 02:53 | 53.54662 | -42.77362 | 36209 ft | 445 kts | 252° |
| 2026-05-09 02:53 | 53.52897 | -42.87315 | 36203 ft | 443 kts | 251° |
| 2026-05-09 02:54 | 53.51128 | -42.97230 | 36198 ft | 443 kts | 251° |
| 2026-05-09 02:54 | 53.49354 | -43.07129 | 36190 ft | 443 kts | 251° |
| 2026-05-09 02:55 | 53.47566 | -43.17040 | 36183 ft | 443 kts | 251° |
| 2026-05-09 02:55 | 53.45789 | -43.26845 | 36181 ft | 442 kts | 251° |
| 2026-05-09 02:56 | 53.43992 | -43.36704 | 36172 ft | 442 kts | 250° |
| 2026-05-09 02:56 | 53.42185 | -43.46565 | 36167 ft | 443 kts | 250° |
| 2026-05-09 02:57 | 53.40368 | -43.56423 | 36161 ft | 442 kts | 250° |
| 2026-05-09 02:57 | 53.38543 | -43.66275 | 36156 ft | 443 kts | 250° |
| 2026-05-09 02:58 | 53.36709 | -43.76130 | 36146 ft | 443 kts | 250° |
| 2026-05-09 02:58 | 53.34870 | -43.85959 | 36144 ft | 442 kts | 250° |
| 2026-05-09 02:59 | 53.33024 | -43.95767 | 36136 ft | 442 kts | 249° |
| 2026-05-09 02:59 | 53.31170 | -44.05571 | 36129 ft | 442 kts | 249° |
| 2026-05-09 03:00 | 53.29306 | -44.15371 | 36122 ft | 442 kts | 249° |
| 2026-05-09 03:00 | 53.27436 | -44.25153 | 36113 ft | 442 kts | 249° |
| 2026-05-09 03:01 | 53.25571 | -44.34865 | 36108 ft | 442 kts | 249° |
| 2026-05-09 03:01 | 53.23686 | -44.44628 | 36095 ft | 442 kts | 249° |
| 2026-05-09 03:02 | 53.21794 | -44.54378 | 36091 ft | 442 kts | 248° |
| 2026-05-09 03:02 | 53.19892 | -44.64126 | 36078 ft | 442 kts | 248° |
| 2026-05-09 03:03 | 53.17983 | -44.73864 | 36075 ft | 442 kts | 248° |
| 2026-05-09 03:03 | 53.16066 | -44.83594 | 36062 ft | 442 kts | 248° |
| 2026-05-09 03:04 | 53.14139 | -44.93323 | 36055 ft | 442 kts | 248° |
| 2026-05-09 03:04 | 53.12204 | -45.03048 | 36051 ft | 442 kts | 248° |
| 2026-05-09 03:05 | 53.10261 | -45.12763 | 36046 ft | 442 kts | 248° |
| 2026-05-09 03:05 | 53.08310 | -45.22473 | 36039 ft | 442 kts | 248° |
| 2026-05-09 03:06 | 53.06353 | -45.32159 | 36030 ft | 442 kts | 248° |
| 2026-05-09 03:06 | 53.04391 | -45.41827 | 36028 ft | 441 kts | 247° |
| 2026-05-09 03:07 | 53.02434 | -45.51417 | 36022 ft | 441 kts | 247° |
| 2026-05-09 03:07 | 53.00462 | -45.61042 | 36020 ft | 440 kts | 247° |
| 2026-05-09 03:08 | 52.98485 | -45.70639 | 36005 ft | 439 kts | 247° |
| 2026-05-09 03:08 | 52.96505 | -45.80209 | 35996 ft | 438 kts | 247° |
| 2026-05-09 03:09 | 52.94520 | -45.89751 | 35992 ft | 437 kts | 246° |
| 2026-05-09 03:09 | 52.92533 | -45.99265 | 35982 ft | 436 kts | 246° |
| 2026-05-09 03:10 | 52.90540 | -46.08758 | 35978 ft | 436 kts | 246° |
| 2026-05-09 03:10 | 52.88542 | -46.18231 | 35973 ft | 435 kts | 246° |
| 2026-05-09 03:11 | 52.86539 | -46.27681 | 35966 ft | 435 kts | 246° |
| 2026-05-09 03:11 | 52.84533 | -46.37105 | 35960 ft | 434 kts | 246° |
| 2026-05-09 03:12 | 52.82535 | -46.46442 | 35952 ft | 434 kts | 246° |
| 2026-05-09 03:12 | 52.80517 | -46.55837 | 35946 ft | 433 kts | 245° |
| 2026-05-09 03:13 | 52.77479 | -46.69894 | 35934 ft | 433 kts | 245° |
| 2026-05-09 03:13 | 52.75444 | -46.79253 | 35934 ft | 433 kts | 245° |
| 2026-05-09 03:14 | 52.73405 | -46.88596 | 35920 ft | 433 kts | 245° |
| 2026-05-09 03:14 | 52.71359 | -46.97921 | 35916 ft | 432 kts | 245° |
| 2026-05-09 03:15 | 52.69308 | -47.07232 | 35904 ft | 432 kts | 245° |
| 2026-05-09 03:15 | 52.67250 | -47.16533 | 35916 ft | 432 kts | 244° |
| 2026-05-09 03:16 | 52.65186 | -47.25817 | 35897 ft | 431 kts | 244° |
| 2026-05-09 03:16 | 52.63116 | -47.35088 | 35893 ft | 431 kts | 244° |
| 2026-05-09 03:17 | 52.61040 | -47.44342 | 35888 ft | 431 kts | 244° |
| 2026-05-09 03:17 | 52.58959 | -47.53578 | 35887 ft | 430 kts | 244° |
| 2026-05-09 03:18 | 52.56874 | -47.62793 | 35877 ft | 430 kts | 244° |
| 2026-05-09 03:18 | 52.54786 | -47.71984 | 35875 ft | 429 kts | 243° |
| 2026-05-09 03:19 | 52.52707 | -47.81092 | 35866 ft | 428 kts | 243° |
| 2026-05-09 03:19 | 52.50612 | -47.90230 | 35853 ft | 427 kts | 243° |
| 2026-05-09 03:20 | 52.48514 | -47.99343 | 35858 ft | 426 kts | 243° |
| 2026-05-09 03:20 | 52.46413 | -48.08430 | 35846 ft | 426 kts | 243° |
| 2026-05-09 03:21 | 52.44310 | -48.17489 | 35841 ft | 425 kts | 243° |
| 2026-05-09 03:21 | 52.42202 | -48.26527 | 35836 ft | 424 kts | 243° |
| 2026-05-09 03:22 | 52.40089 | -48.35550 | 35829 ft | 424 kts | 242° |
| 2026-05-09 03:22 | 52.37970 | -48.44559 | 35825 ft | 424 kts | 242° |
| 2026-05-09 03:23 | 52.35845 | -48.53562 | 35820 ft | 424 kts | 242° |
| 2026-05-09 03:23 | 52.33713 | -48.62553 | 35808 ft | 424 kts | 242° |
| 2026-05-09 03:24 | 52.31588 | -48.71475 | 35807 ft | 424 kts | 242° |
| 2026-05-09 03:24 | 52.29441 | -48.80452 | 35799 ft | 424 kts | 242° |
| 2026-05-09 03:25 | 52.27287 | -48.89425 | 35799 ft | 425 kts | 241° |
| 2026-05-09 03:25 | 52.25123 | -48.98403 | 35790 ft | 425 kts | 241° |
| 2026-05-09 03:26 | 52.22949 | -49.07382 | 35786 ft | 426 kts | 241° |
| 2026-05-09 03:26 | 52.20766 | -49.16363 | 35783 ft | 426 kts | 241° |
| 2026-05-09 03:27 | 52.18575 | -49.25341 | 35776 ft | 426 kts | 240° |
| 2026-05-09 03:27 | 52.16377 | -49.34312 | 35771 ft | 427 kts | 240° |
| 2026-05-09 03:28 | 52.14167 | -49.43293 | 35775 ft | 427 kts | 240° |
| 2026-05-09 03:28 | 52.11949 | -49.52268 | 35764 ft | 428 kts | 240° |
| 2026-05-09 03:29 | 52.09740 | -49.61180 | 35765 ft | 428 kts | 240° |
| 2026-05-09 03:29 | 52.07510 | -49.70156 | 35752 ft | 428 kts | 240° |
| 2026-05-09 03:30 | 52.05394 | -49.78649 | 35750 ft | 429 kts | 239° |
| 2026-05-09 03:30 | 52.04363 | -49.82775 | 35748 ft | 429 kts | 239° |
| 2026-05-09 03:31 | 52.02114 | -49.91749 | 35736 ft | 429 kts | 239° |
| 2026-05-09 03:31 | 51.99855 | -50.00717 | 35734 ft | 430 kts | 239° |
| 2026-05-09 03:32 | 51.97621 | -50.09643 | 35728 ft | 431 kts | 240° |
| 2026-05-09 03:32 | 51.95474 | -50.18719 | 35724 ft | 431 kts | 240° |
| 2026-05-09 03:33 | 51.93304 | -50.27785 | 35719 ft | 431 kts | 240° |
| 2026-05-09 03:33 | 51.91112 | -50.36820 | 35719 ft | 431 kts | 240° |
| 2026-05-09 03:34 | 51.88909 | -50.45843 | 35718 ft | 431 kts | 239° |
| 2026-05-09 03:34 | 51.86702 | -50.54847 | 35704 ft | 430 kts | 239° |
| 2026-05-09 03:35 | 51.84491 | -50.63834 | 35703 ft | 430 kts | 239° |
| 2026-05-09 03:35 | 51.82274 | -50.72807 | 35702 ft | 429 kts | 239° |
| 2026-05-09 03:36 | 51.80054 | -50.81754 | 35702 ft | 429 kts | 239° |
| 2026-05-09 03:36 | 51.77832 | -50.90678 | 35699 ft | 428 kts | 239° |
| 2026-05-09 03:37 | 51.75605 | -50.99584 | 35695 ft | 427 kts | 239° |
| 2026-05-09 03:37 | 51.73377 | -51.08457 | 35686 ft | 426 kts | 238° |
| 2026-05-09 03:38 | 51.71144 | -51.17314 | 35682 ft | 425 kts | 238° |
| 2026-05-09 03:38 | 51.68911 | -51.26138 | 35676 ft | 425 kts | 238° |
| 2026-05-09 03:39 | 51.66676 | -51.34932 | 35668 ft | 424 kts | 238° |
| 2026-05-09 03:39 | 51.64450 | -51.43660 | 35667 ft | 424 kts | 238° |
| 2026-05-09 03:40 | 51.62208 | -51.52415 | 35662 ft | 423 kts | 238° |
| 2026-05-09 03:40 | 51.59960 | -51.61159 | 35656 ft | 423 kts | 238° |
| 2026-05-09 03:41 | 51.57709 | -51.69883 | 35655 ft | 422 kts | 237° |
| 2026-05-09 03:41 | 51.55454 | -51.78586 | 35644 ft | 422 kts | 237° |
| 2026-05-09 03:42 | 51.53562 | -51.85864 | 35658 ft | 421 kts | 237° |
| 2026-05-09 03:42 | 51.51300 | -51.94534 | 35639 ft | 421 kts | 237° |
| 2026-05-09 03:43 | 51.49032 | -52.03192 | 35636 ft | 421 kts | 237° |
| 2026-05-09 03:43 | 51.46760 | -52.11836 | 35636 ft | 420 kts | 237° |
| 2026-05-09 03:44 | 51.44499 | -52.20404 | 35634 ft | 420 kts | 237° |
| 2026-05-09 03:44 | 51.42217 | -52.29020 | 35627 ft | 420 kts | 237° |
| 2026-05-09 03:45 | 51.39929 | -52.37625 | 35622 ft | 420 kts | 237° |
| 2026-05-09 03:45 | 51.37632 | -52.46231 | 35620 ft | 420 kts | 236° |
| 2026-05-09 03:46 | 51.35330 | -52.54824 | 35622 ft | 420 kts | 236° |
| 2026-05-09 03:46 | 51.33020 | -52.63417 | 35616 ft | 421 kts | 236° |
| 2026-05-09 03:47 | 51.30703 | -52.72003 | 35618 ft | 421 kts | 236° |
| 2026-05-09 03:47 | 51.28377 | -52.80588 | 35612 ft | 421 kts | 236° |
| 2026-05-09 03:48 | 51.26048 | -52.89155 | 35617 ft | 421 kts | 236° |
| 2026-05-09 03:48 | 51.23708 | -52.97731 | 35616 ft | 421 kts | 236° |
| 2026-05-09 03:49 | 51.21364 | -53.06287 | 35612 ft | 421 kts | 236° |
| 2026-05-09 03:49 | 51.19031 | -53.14779 | 35611 ft | 421 kts | 236° |
| 2026-05-09 03:50 | 51.16670 | -53.23319 | 35610 ft | 420 kts | 235° |
| 2026-05-09 03:50 | 51.14125 | -53.31644 | 35609 ft | 418 kts | 234° |
| 2026-05-09 03:51 | 51.11600 | -53.39984 | 35606 ft | 419 kts | 234° |
| 2026-05-09 03:51 | 51.09084 | -53.48341 | 35605 ft | 419 kts | 234° |
| 2026-05-09 03:52 | 51.06561 | -53.56697 | 35603 ft | 419 kts | 234° |
| 2026-05-09 03:52 | 51.04030 | -53.65045 | 35608 ft | 419 kts | 234° |
| 2026-05-09 03:53 | 51.01493 | -53.73385 | 35609 ft | 420 kts | 234° |
| 2026-05-09 03:53 | 50.98944 | -53.81731 | 35609 ft | 420 kts | 234° |
| 2026-05-09 03:54 | 50.96388 | -53.90075 | 35612 ft | 420 kts | 234° |
| 2026-05-09 03:54 | 50.93827 | -53.98408 | 35616 ft | 420 kts | 234° |
| 2026-05-09 03:55 | 50.91258 | -54.06734 | 35614 ft | 420 kts | 233° |
| 2026-05-09 03:55 | 50.88682 | -54.15045 | 35621 ft | 421 kts | 233° |
| 2026-05-09 03:56 | 50.86097 | -54.23350 | 35623 ft | 420 kts | 233° |
| 2026-05-09 03:56 | 50.83523 | -54.31587 | 35629 ft | 420 kts | 233° |
| 2026-05-09 03:57 | 50.80928 | -54.39865 | 35635 ft | 420 kts | 233° |
| 2026-05-09 03:57 | 50.78327 | -54.48130 | 35638 ft | 420 kts | 233° |
| 2026-05-09 03:58 | 50.75724 | -54.56379 | 35634 ft | 419 kts | 233° |
| 2026-05-09 03:58 | 50.73120 | -54.64602 | 35638 ft | 418 kts | 233° |
| 2026-05-09 03:59 | 50.70513 | -54.72809 | 35641 ft | 418 kts | 232° |
| 2026-05-09 03:59 | 50.67901 | -54.80995 | 35644 ft | 418 kts | 232° |
| 2026-05-09 04:00 | 50.65281 | -54.89179 | 35653 ft | 418 kts | 232° |
| 2026-05-09 04:00 | 50.62659 | -54.97349 | 35653 ft | 418 kts | 232° |
| 2026-05-09 04:01 | 50.60036 | -55.05502 | 35655 ft | 417 kts | 232° |
| 2026-05-09 04:01 | 50.57424 | -55.13588 | 35659 ft | 417 kts | 232° |
| 2026-05-09 04:02 | 50.54788 | -55.21721 | 35660 ft | 417 kts | 232° |
| 2026-05-09 04:02 | 50.52098 | -55.29772 | 35674 ft | 417 kts | 230° |
| 2026-05-09 04:03 | 50.49305 | -55.37733 | 35695 ft | 416 kts | 230° |
| 2026-05-09 04:03 | 50.46543 | -55.45726 | 35718 ft | 417 kts | 231° |
| 2026-05-09 04:04 | 50.43845 | -55.53792 | 35744 ft | 419 kts | 232° |
| 2026-05-09 04:04 | 50.41208 | -55.61928 | 35763 ft | 418 kts | 232° |
| 2026-05-09 04:05 | 50.38600 | -55.70061 | 35785 ft | 417 kts | 232° |
| 2026-05-09 04:05 | 50.35989 | -55.78180 | 35804 ft | 417 kts | 233° |
| 2026-05-09 04:06 | 50.33401 | -55.86318 | 35827 ft | 418 kts | 233° |
| 2026-05-09 04:06 | 50.30873 | -55.94530 | 35859 ft | 419 kts | 234° |
| 2026-05-09 04:07 | 50.28401 | -56.02810 | 35884 ft | 421 kts | 235° |
| 2026-05-09 04:07 | 50.25989 | -56.11158 | 35899 ft | 422 kts | 236° |
| 2026-05-09 04:08 | 50.23636 | -56.19568 | 35921 ft | 423 kts | 237° |
| 2026-05-09 04:08 | 50.21356 | -56.27977 | 35933 ft | 423 kts | 237° |
| 2026-05-09 04:09 | 50.19117 | -56.36489 | 35953 ft | 424 kts | 238° |
| 2026-05-09 04:09 | 50.16934 | -56.45039 | 35966 ft | 424 kts | 239° |
| 2026-05-09 04:10 | 50.14812 | -56.53630 | 35988 ft | 425 kts | 239° |
| 2026-05-09 04:10 | 50.12748 | -56.62272 | 36015 ft | 425 kts | 240° |
| 2026-05-09 04:11 | 50.10714 | -56.70923 | 36036 ft | 426 kts | 240° |
| 2026-05-09 04:11 | 50.08686 | -56.79595 | 36047 ft | 426 kts | 241° |
| 2026-05-09 04:12 | 50.06709 | -56.88281 | 36062 ft | 426 kts | 241° |
| 2026-05-09 04:12 | 50.04766 | -56.97007 | 36082 ft | 427 kts | 242° |
| 2026-05-09 04:13 | 50.02875 | -57.05767 | 36112 ft | 428 kts | 243° |
| 2026-05-09 04:13 | 50.01040 | -57.14580 | 36132 ft | 428 kts | 244° |
| 2026-05-09 04:14 | 49.99266 | -57.23364 | 36153 ft | 429 kts | 244° |
| 2026-05-09 04:14 | 49.97523 | -57.32232 | 36174 ft | 429 kts | 245° |
| 2026-05-09 04:15 | 49.95798 | -57.41108 | 36199 ft | 429 kts | 245° |
| 2026-05-09 04:15 | 49.94088 | -57.49987 | 36219 ft | 429 kts | 245° |
| 2026-05-09 04:16 | 49.92416 | -57.58890 | 36223 ft | 429 kts | 246° |
| 2026-05-09 04:16 | 49.90742 | -57.67773 | 36238 ft | 429 kts | 246° |
| 2026-05-09 04:17 | 49.89054 | -57.76646 | 36257 ft | 429 kts | 246° |
| 2026-05-09 04:17 | 49.87377 | -57.85520 | 36279 ft | 429 kts | 246° |
| 2026-05-09 04:18 | 49.85721 | -57.94399 | 36290 ft | 429 kts | 246° |
| 2026-05-09 04:18 | 49.84097 | -58.03287 | 36298 ft | 429 kts | 247° |
| 2026-05-09 04:19 | 49.82509 | -58.12135 | 36313 ft | 429 kts | 247° |
| 2026-05-09 04:19 | 49.80931 | -58.21037 | 36322 ft | 429 kts | 247° |
| 2026-05-09 04:20 | 49.79354 | -58.29931 | 36337 ft | 428 kts | 247° |
| 2026-05-09 04:20 | 49.77763 | -58.38805 | 36342 ft | 428 kts | 247° |
| 2026-05-09 04:21 | 49.76151 | -58.47661 | 36362 ft | 427 kts | 247° |
| 2026-05-09 04:22 | 49.73734 | -58.60917 | 36378 ft | 427 kts | 247° |
| 2026-05-09 04:22 | 49.72175 | -58.69782 | 36385 ft | 427 kts | 248° |
| 2026-05-09 04:23 | 49.70699 | -58.78675 | 36398 ft | 427 kts | 249° |
| 2026-05-09 04:23 | 49.69290 | -58.87589 | 36407 ft | 427 kts | 249° |
| 2026-05-09 04:24 | 49.67940 | -58.96519 | 36421 ft | 427 kts | 250° |
| 2026-05-09 04:24 | 49.66655 | -59.05424 | 36424 ft | 427 kts | 251° |
| 2026-05-09 04:25 | 49.65423 | -59.14396 | 36436 ft | 427 kts | 251° |
| 2026-05-09 04:25 | 49.64252 | -59.23395 | 36441 ft | 428 kts | 252° |
| 2026-05-09 04:26 | 49.63147 | -59.32410 | 36451 ft | 428 kts | 252° |
| 2026-05-09 04:26 | 49.62111 | -59.41446 | 36458 ft | 428 kts | 253° |
| 2026-05-09 04:27 | 49.61142 | -59.50505 | 36469 ft | 428 kts | 253° |
| 2026-05-09 04:27 | 49.60239 | -59.59581 | 36476 ft | 428 kts | 254° |
| 2026-05-09 04:28 | 49.59404 | -59.68677 | 36484 ft | 429 kts | 255° |
| 2026-05-09 04:28 | 49.58635 | -59.77789 | 36491 ft | 429 kts | 256° |
| 2026-05-09 04:29 | 49.57935 | -59.86918 | 36499 ft | 429 kts | 256° |
| 2026-05-09 04:29 | 49.57305 | -59.96067 | 36510 ft | 430 kts | 257° |
| 2026-05-09 04:30 | 49.56752 | -60.05174 | 36515 ft | 430 kts | 257° |
| 2026-05-09 04:30 | 49.56274 | -60.14364 | 36529 ft | 431 kts | 258° |
| 2026-05-09 04:31 | 49.55879 | -60.23574 | 36546 ft | 431 kts | 259° |
| 2026-05-09 04:31 | 49.55566 | -60.32802 | 36548 ft | 432 kts | 259° |
| 2026-05-09 04:32 | 49.55343 | -60.42044 | 36551 ft | 432 kts | 260° |
| 2026-05-09 04:32 | 49.55203 | -60.51308 | 36569 ft | 433 kts | 261° |
| 2026-05-09 04:33 | 49.55148 | -60.60593 | 36581 ft | 434 kts | 262° |
| 2026-05-09 04:33 | 49.55161 | -60.68324 | 36582 ft | 435 kts | 262° |
| 2026-05-09 04:34 | 49.55253 | -60.77638 | 36588 ft | 435 kts | 263° |
| 2026-05-09 04:34 | 49.55421 | -60.86968 | 36607 ft | 436 kts | 264° |
| 2026-05-09 04:35 | 49.55668 | -60.96311 | 36615 ft | 437 kts | 264° |
| 2026-05-09 04:35 | 49.55984 | -61.05675 | 36624 ft | 438 kts | 265° |
| 2026-05-09 04:36 | 49.56365 | -61.15051 | 36642 ft | 439 kts | 266° |
| 2026-05-09 04:36 | 49.56807 | -61.24437 | 36654 ft | 440 kts | 266° |
| 2026-05-09 04:37 | 49.57313 | -61.33837 | 36669 ft | 441 kts | 267° |
| 2026-05-09 04:37 | 49.57873 | -61.43257 | 36680 ft | 442 kts | 268° |
| 2026-05-09 04:38 | 49.58485 | -61.52686 | 36702 ft | 442 kts | 268° |
| 2026-05-09 04:38 | 49.59135 | -61.62122 | 36716 ft | 443 kts | 268° |
| 2026-05-09 04:39 | 49.59823 | -61.71571 | 36733 ft | 444 kts | 269° |
| 2026-05-09 04:39 | 49.60545 | -61.81039 | 36757 ft | 445 kts | 269° |
| 2026-05-09 04:40 | 49.61294 | -61.90451 | 36775 ft | 446 kts | 270° |
| 2026-05-09 04:40 | 49.62069 | -61.99938 | 36783 ft | 446 kts | 270° |
| 2026-05-09 04:41 | 49.62864 | -62.09429 | 36799 ft | 446 kts | 270° |
| 2026-05-09 04:41 | 49.63674 | -62.18927 | 36825 ft | 447 kts | 270° |
| 2026-05-09 04:42 | 49.64497 | -62.28437 | 36854 ft | 447 kts | 270° |
| 2026-05-09 04:42 | 49.65329 | -62.37952 | 36872 ft | 448 kts | 271° |
| 2026-05-09 04:43 | 49.66170 | -62.47466 | 36897 ft | 448 kts | 271° |
| 2026-05-09 04:43 | 49.67019 | -62.56997 | 36918 ft | 448 kts | 271° |
| 2026-05-09 04:44 | 49.67875 | -62.66535 | 36934 ft | 449 kts | 271° |
| 2026-05-09 04:44 | 49.68736 | -62.76079 | 36951 ft | 449 kts | 271° |
| 2026-05-09 04:45 | 49.69601 | -62.85639 | 36977 ft | 449 kts | 271° |
| 2026-05-09 04:45 | 49.70469 | -62.95194 | 37011 ft | 450 kts | 271° |
| 2026-05-09 04:46 | 49.71348 | -63.04764 | 37043 ft | 450 kts | 271° |
| 2026-05-09 04:46 | 49.72200 | -63.14338 | 37070 ft | 450 kts | 271° |
| 2026-05-09 04:47 | 49.73031 | -63.23925 | 37099 ft | 450 kts | 271° |
| 2026-05-09 04:47 | 49.73859 | -63.33516 | 37125 ft | 450 kts | 271° |
| 2026-05-09 04:48 | 49.74680 | -63.43048 | 37134 ft | 440 kts | 271° |
| 2026-05-09 04:48 | 49.75080 | -63.47620 | 37125 ft | 429 kts | 271° |
| 2026-05-09 04:48 | 49.75480 | -63.52128 | 37104 ft | 417 kts | 271° |
| 2026-05-09 04:48 | 49.75878 | -63.56502 | 37072 ft | 405 kts | 271° |
| 2026-05-09 04:49 | 49.76271 | -63.60745 | 37024 ft | 393 kts | 271° |
| 2026-05-09 04:49 | 49.76661 | -63.64859 | 36974 ft | 381 kts | 271° |
| 2026-05-09 04:49 | 49.77047 | -63.68858 | 36896 ft | 371 kts | 271° |
| 2026-05-09 04:49 | 49.77433 | -63.72744 | 36821 ft | 360 kts | 271° |
| 2026-05-09 04:50 | 49.77814 | -63.76521 | 36706 ft | 351 kts | 271° |
| 2026-05-09 04:50 | 49.78194 | -63.80196 | 36579 ft | 341 kts | 271° |
| 2026-05-09 04:50 | 49.78573 | -63.83776 | 36440 ft | 333 kts | 271° |
| 2026-05-09 04:50 | 49.78944 | -63.87270 | 36289 ft | 328 kts | 270° |
| 2026-05-09 04:51 | 49.78889 | -63.90642 | 36717 ft | 301 kts | 250° |
| 2026-05-09 04:51 | 49.78187 | -63.93559 | 37226 ft | 282 kts | 238° |
| 2026-05-09 04:51 | 49.77197 | -63.96110 | 37584 ft | 272 kts | 232° |
| 2026-05-09 04:51 | 49.75920 | -63.98179 | 37861 ft | 261 kts | 215° |
| 2026-05-09 04:52 | 49.74401 | -63.99583 | 38315 ft | 249 kts | 207° |
| 2026-05-09 04:52 | 49.72804 | -64.00748 | 37661 ft | 272 kts | 207° |
| 2026-05-09 04:52 | 49.70957 | -64.02123 | 36605 ft | 313 kts | 207° |
| 2026-05-09 04:52 | 49.68878 | -64.03690 | 35508 ft | 354 kts | 207° |
| 2026-05-09 04:53 | 49.66536 | -64.05436 | 34623 ft | 389 kts | 207° |
| 2026-05-09 04:53 | 49.63989 | -64.07163 | 34150 ft | 411 kts | 205° |
| 2026-05-09 04:53 | 49.61323 | -64.08924 | 33916 ft | 421 kts | 205° |
| 2026-05-09 04:53 | 49.58608 | -64.10727 | 33608 ft | 429 kts | 205° |
| 2026-05-09 04:54 | 49.55860 | -64.12536 | 33257 ft | 429 kts | 205° |
| 2026-05-09 04:54 | 49.53125 | -64.14371 | 32868 ft | 427 kts | 208° |
| 2026-05-09 04:54 | 49.50519 | -64.16524 | 32509 ft | 423 kts | 214° |
| 2026-05-09 04:54 | 49.48158 | -64.19204 | 32285 ft | 421 kts | 218° |
| 2026-05-09 04:55 | 49.45853 | -64.21985 | 32082 ft | 421 kts | 218° |
| 2026-05-09 04:55 | 49.43554 | -64.24755 | 31857 ft | 420 kts | 218° |
| 2026-05-09 04:55 | 49.41255 | -64.27518 | 31661 ft | 418 kts | 218° |
| 2026-05-09 04:55 | 49.38962 | -64.30261 | 31455 ft | 417 kts | 218° |
| 2026-05-09 04:56 | 49.36697 | -64.32957 | 31262 ft | 416 kts | 218° |
| 2026-05-09 04:56 | 49.34405 | -64.35671 | 31064 ft | 416 kts | 218° |
| 2026-05-09 04:56 | 49.32118 | -64.38363 | 30871 ft | 414 kts | 218° |
| 2026-05-09 04:56 | 49.29836 | -64.41039 | 30687 ft | 413 kts | 218° |
| 2026-05-09 04:57 | 49.27553 | -64.43704 | 30504 ft | 412 kts | 218° |
| 2026-05-09 04:57 | 49.25277 | -64.46346 | 30319 ft | 411 kts | 217° |
| 2026-05-09 04:57 | 49.23001 | -64.48974 | 30133 ft | 409 kts | 217° |
| 2026-05-09 04:57 | 49.20732 | -64.51583 | 29961 ft | 407 kts | 217° |
| 2026-05-09 04:58 | 49.18510 | -64.54266 | 29765 ft | 407 kts | 218° |
| 2026-05-09 04:58 | 49.16326 | -64.57020 | 29596 ft | 407 kts | 220° |
| 2026-05-09 04:58 | 49.14180 | -64.59836 | 29419 ft | 407 kts | 220° |
| 2026-05-09 04:58 | 49.12038 | -64.62679 | 29273 ft | 407 kts | 220° |
| 2026-05-09 04:59 | 49.09937 | -64.65480 | 29165 ft | 406 kts | 221° |
| 2026-05-09 04:59 | 49.07813 | -64.68318 | 29049 ft | 406 kts | 221° |
| 2026-05-09 04:59 | 49.05689 | -64.71149 | 28948 ft | 405 kts | 221° |
| 2026-05-09 04:59 | 49.03565 | -64.73974 | 28847 ft | 405 kts | 221° |
| 2026-05-09 05:00 | 49.01438 | -64.76793 | 28739 ft | 405 kts | 220° |
| 2026-05-09 05:00 | 48.99304 | -64.79607 | 28623 ft | 405 kts | 220° |
| 2026-05-09 05:00 | 48.97166 | -64.82409 | 28568 ft | 405 kts | 220° |
| 2026-05-09 05:01 | 48.92901 | -64.87959 | 28574 ft | 403 kts | 220° |
| 2026-05-09 05:01 | 48.88627 | -64.93456 | 28579 ft | 402 kts | 220° |
| 2026-05-09 05:02 | 48.84337 | -64.98873 | 28583 ft | 401 kts | 219° |
| 2026-05-09 05:02 | 48.80002 | -65.04199 | 28581 ft | 400 kts | 219° |
| 2026-05-09 05:03 | 48.75609 | -65.09383 | 28578 ft | 400 kts | 217° |
| 2026-05-09 05:03 | 48.71110 | -65.14348 | 28590 ft | 400 kts | 216° |
| 2026-05-09 05:04 | 48.66530 | -65.19058 | 28595 ft | 401 kts | 214° |
| 2026-05-09 05:04 | 48.61816 | -65.23575 | 28596 ft | 402 kts | 213° |
| 2026-05-09 05:05 | 48.56992 | -65.27859 | 28605 ft | 403 kts | 211° |
| 2026-05-09 05:05 | 48.52059 | -65.31883 | 28608 ft | 403 kts | 210° |
| 2026-05-09 05:06 | 48.47031 | -65.35680 | 28611 ft | 404 kts | 208° |
| 2026-05-09 05:06 | 48.41930 | -65.39266 | 28621 ft | 405 kts | 207° |
| 2026-05-09 05:07 | 48.36738 | -65.42620 | 28625 ft | 406 kts | 205° |
| 2026-05-09 05:07 | 48.31471 | -65.45720 | 28655 ft | 407 kts | 204° |
| 2026-05-09 05:08 | 48.26125 | -65.48594 | 28669 ft | 407 kts | 204° |
| 2026-05-09 05:08 | 48.21098 | -65.52234 | 28749 ft | 403 kts | 212° |
| 2026-05-09 05:09 | 48.16131 | -65.56129 | 28861 ft | 404 kts | 207° |
| 2026-05-09 05:09 | 48.11013 | -65.59373 | 28985 ft | 400 kts | 207° |
| 2026-05-09 05:10 | 48.06068 | -65.63194 | 29140 ft | 400 kts | 211° |
| 2026-05-09 05:10 | 48.01231 | -65.67335 | 29274 ft | 401 kts | 212° |
| 2026-05-09 05:11 | 47.96359 | -65.71420 | 29421 ft | 402 kts | 210° |
| 2026-05-09 05:11 | 47.91423 | -65.75338 | 29592 ft | 402 kts | 210° |
| 2026-05-09 05:12 | 47.86446 | -65.79154 | 29771 ft | 402 kts | 209° |
| 2026-05-09 05:12 | 47.81465 | -65.82996 | 29803 ft | 404 kts | 210° |
| 2026-05-09 05:13 | 47.76481 | -65.86920 | 29809 ft | 406 kts | 210° |
| 2026-05-09 05:13 | 47.71424 | -65.90710 | 29823 ft | 408 kts | 208° |
| 2026-05-09 05:14 | 47.66271 | -65.94278 | 29839 ft | 409 kts | 207° |
| 2026-05-09 05:14 | 47.61074 | -65.97608 | 29847 ft | 410 kts | 206° |
| 2026-05-09 05:15 | 47.55782 | -66.00815 | 29854 ft | 412 kts | 205° |
| 2026-05-09 05:15 | 47.50445 | -66.03919 | 29865 ft | 413 kts | 204° |
| 2026-05-09 05:16 | 47.45068 | -66.06925 | 29881 ft | 414 kts | 204° |
| 2026-05-09 05:16 | 47.39655 | -66.09834 | 29898 ft | 415 kts | 203° |
| 2026-05-09 05:17 | 47.34195 | -66.12630 | 29906 ft | 416 kts | 202° |
| 2026-05-09 05:17 | 47.29028 | -66.16276 | 29939 ft | 411 kts | 213° |
| 2026-05-09 05:18 | 47.24187 | -66.20779 | 29981 ft | 412 kts | 214° |
| 2026-05-09 05:18 | 47.19374 | -66.25376 | 30026 ft | 413 kts | 214° |
| 2026-05-09 05:19 | 47.14546 | -66.29972 | 30058 ft | 414 kts | 214° |
| 2026-05-09 05:19 | 47.09694 | -66.34536 | 30107 ft | 415 kts | 214° |
| 2026-05-09 05:19 | 47.07246 | -66.36806 | 29971 ft | 418 kts | 214° |
| 2026-05-09 05:20 | 47.04775 | -66.39080 | 29803 ft | 420 kts | 214° |
| 2026-05-09 05:20 | 47.02291 | -66.41343 | 29657 ft | 421 kts | 213° |
| 2026-05-09 05:20 | 46.99834 | -66.43549 | 29802 ft | 417 kts | 213° |
| 2026-05-09 05:21 | 46.94860 | -66.47916 | 29975 ft | 416 kts | 213° |
| 2026-05-09 05:21 | 46.89842 | -66.52176 | 30007 ft | 418 kts | 212° |
| 2026-05-09 05:22 | 46.84765 | -66.56370 | 30024 ft | 420 kts | 212° |
| 2026-05-09 05:22 | 46.79651 | -66.60502 | 30042 ft | 421 kts | 211° |
| 2026-05-09 05:23 | 46.74495 | -66.64575 | 30061 ft | 422 kts | 211° |
| 2026-05-09 05:23 | 46.69297 | -66.68582 | 30098 ft | 423 kts | 211° |
| 2026-05-09 05:24 | 46.64015 | -66.72558 | 30052 ft | 439 kts | 210° |
| 2026-05-09 05:24 | 46.61251 | -66.74620 | 29878 ft | 453 kts | 210° |
| 2026-05-09 05:24 | 46.58417 | -66.76726 | 29816 ft | 460 kts | 210° |
| 2026-05-09 05:25 | 46.53637 | -66.80247 | 29837 ft | 466 kts | 210° |
| 2026-05-09 05:25 | 46.44889 | -66.86602 | 29879 ft | 470 kts | 209° |
| 2026-05-09 05:26 | 46.38044 | -66.91442 | 29891 ft | 472 kts | 209° |
| 2026-05-09 05:26 | 46.33061 | -66.94836 | 29911 ft | 473 kts | 208° |
| 2026-05-09 05:27 | 46.27042 | -66.98725 | 29917 ft | 474 kts | 207° |
| 2026-05-09 05:27 | 46.20948 | -67.02431 | 29949 ft | 476 kts | 206° |
| 2026-05-09 05:28 | 46.14785 | -67.05957 | 29969 ft | 477 kts | 205° |
| 2026-05-09 05:28 | 46.08549 | -67.09255 | 29986 ft | 478 kts | 203° |
| 2026-05-09 05:29 | 46.02219 | -67.12292 | 30005 ft | 480 kts | 202° |
| 2026-05-09 05:29 | 45.95803 | -67.15040 | 30021 ft | 482 kts | 200° |
| 2026-05-09 05:30 | 45.89345 | -67.17476 | 30048 ft | 484 kts | 198° |
| 2026-05-09 05:30 | 45.82767 | -67.19613 | 30062 ft | 486 kts | 197° |
| 2026-05-09 05:31 | 45.76111 | -67.21438 | 30092 ft | 488 kts | 195° |
| 2026-05-09 05:31 | 45.69397 | -67.22982 | 30104 ft | 487 kts | 197° |
| 2026-05-09 05:32 | 45.62979 | -67.25786 | 29989 ft | 479 kts | 210° |
| 2026-05-09 05:32 | 45.60139 | -67.28171 | 29931 ft | 470 kts | 222° |
| 2026-05-09 05:32 | 45.57656 | -67.31163 | 29934 ft | 465 kts | 227° |
| 2026-05-09 05:33 | 45.52955 | -67.37453 | 29934 ft | 463 kts | 229° |
| 2026-05-09 05:33 | 45.48270 | -67.43763 | 29932 ft | 463 kts | 228° |
| 2026-05-09 05:34 | 45.43545 | -67.49910 | 29928 ft | 463 kts | 227° |
| 2026-05-09 05:34 | 45.38680 | -67.55927 | 29935 ft | 464 kts | 226° |
| 2026-05-09 05:35 | 45.33715 | -67.61785 | 29928 ft | 463 kts | 226° |
| 2026-05-09 05:35 | 45.29022 | -67.67969 | 29913 ft | 459 kts | 230° |
| 2026-05-09 05:36 | 45.24454 | -67.74300 | 29876 ft | 459 kts | 230° |
| 2026-05-09 05:36 | 45.19900 | -67.80639 | 29835 ft | 459 kts | 230° |
| 2026-05-09 05:37 | 45.15393 | -67.87019 | 29809 ft | 456 kts | 232° |
| 2026-05-09 05:37 | 45.11006 | -67.93498 | 29933 ft | 454 kts | 232° |
| 2026-05-09 05:38 | 45.06652 | -67.99986 | 29942 ft | 455 kts | 232° |
| 2026-05-09 05:38 | 45.02319 | -68.06504 | 29939 ft | 455 kts | 232° |
| 2026-05-09 05:39 | 44.98048 | -68.13004 | 29943 ft | 454 kts | 233° |
| 2026-05-09 05:39 | 44.93770 | -68.19577 | 29951 ft | 454 kts | 233° |
| 2026-05-09 05:40 | 44.89511 | -68.26152 | 29956 ft | 454 kts | 233° |
| 2026-05-09 05:40 | 44.85262 | -68.32740 | 29962 ft | 454 kts | 233° |
| 2026-05-09 05:41 | 44.81036 | -68.39339 | 29971 ft | 453 kts | 233° |
| 2026-05-09 05:41 | 44.76829 | -68.45956 | 29974 ft | 453 kts | 233° |
| 2026-05-09 05:42 | 44.72632 | -68.52576 | 29981 ft | 453 kts | 233° |
| 2026-05-09 05:42 | 44.68445 | -68.59199 | 29998 ft | 453 kts | 233° |
| 2026-05-09 05:43 | 44.64273 | -68.65835 | 30010 ft | 453 kts | 233° |
| 2026-05-09 05:43 | 44.60123 | -68.72487 | 30018 ft | 453 kts | 233° |
| 2026-05-09 05:44 | 44.56017 | -68.79097 | 30023 ft | 452 kts | 233° |
| 2026-05-09 05:44 | 44.51883 | -68.85745 | 30027 ft | 452 kts | 233° |
| 2026-05-09 05:45 | 44.47739 | -68.92378 | 30030 ft | 452 kts | 233° |
| 2026-05-09 05:45 | 44.43573 | -68.98971 | 30059 ft | 452 kts | 233° |
| 2026-05-09 05:46 | 44.39378 | -69.05529 | 30074 ft | 452 kts | 232° |
| 2026-05-09 05:46 | 44.35176 | -69.12064 | 30090 ft | 452 kts | 232° |
| 2026-05-09 05:47 | 44.30971 | -69.18599 | 30120 ft | 452 kts | 232° |
| 2026-05-09 05:47 | 44.26784 | -69.25134 | 30147 ft | 452 kts | 233° |
| 2026-05-09 05:48 | 44.22624 | -69.31708 | 30157 ft | 451 kts | 233° |
| 2026-05-09 05:48 | 44.18462 | -69.38265 | 30177 ft | 452 kts | 233° |
| 2026-05-09 05:49 | 44.14284 | -69.44810 | 30198 ft | 452 kts | 233° |
| 2026-05-09 05:49 | 44.10124 | -69.51291 | 30230 ft | 451 kts | 232° |
| 2026-05-09 05:50 | 44.05928 | -69.57800 | 30144 ft | 453 kts | 232° |
| 2026-05-09 05:50 | 44.01726 | -69.64328 | 29999 ft | 453 kts | 232° |
| 2026-05-09 05:51 | 43.97506 | -69.70843 | 29820 ft | 454 kts | 232° |
| 2026-05-09 05:51 | 43.93275 | -69.77294 | 29932 ft | 450 kts | 232° |
| 2026-05-09 05:52 | 43.89048 | -69.83683 | 30043 ft | 449 kts | 232° |
| 2026-05-09 05:52 | 43.84812 | -69.90029 | 30139 ft | 448 kts | 232° |
| 2026-05-09 05:53 | 43.80568 | -69.96353 | 30232 ft | 448 kts | 232° |
| 2026-05-09 05:53 | 43.78436 | -69.99516 | 30097 ft | 451 kts | 232° |
| 2026-05-09 05:53 | 43.76291 | -70.02686 | 30028 ft | 452 kts | 232° |
| 2026-05-09 05:54 | 43.71978 | -70.09000 | 29988 ft | 451 kts | 231° |
| 2026-05-09 05:54 | 43.67681 | -70.15221 | 30013 ft | 450 kts | 231° |
| 2026-05-09 05:55 | 43.63338 | -70.21437 | 30057 ft | 449 kts | 231° |
| 2026-05-09 05:55 | 43.58976 | -70.27617 | 30099 ft | 449 kts | 231° |
| 2026-05-09 05:56 | 43.54585 | -70.33749 | 30125 ft | 449 kts | 231° |
| 2026-05-09 05:56 | 43.50182 | -70.39850 | 30166 ft | 449 kts | 231° |
| 2026-05-09 05:57 | 43.45753 | -70.45910 | 30191 ft | 449 kts | 230° |
| 2026-05-09 05:57 | 43.41246 | -70.51862 | 30158 ft | 452 kts | 227° |
| 2026-05-09 05:58 | 43.36220 | -70.57174 | 30057 ft | 459 kts | 221° |
| 2026-05-09 05:58 | 43.30794 | -70.61827 | 30064 ft | 461 kts | 218° |
| 2026-05-09 05:59 | 43.25104 | -70.65973 | 30062 ft | 466 kts | 213° |
| 2026-05-09 05:59 | 43.19118 | -70.69452 | 30042 ft | 474 kts | 205° |
| 2026-05-09 06:00 | 43.12649 | -70.71553 | 30034 ft | 479 kts | 200° |
| 2026-05-09 06:00 | 43.06123 | -70.73508 | 29963 ft | 481 kts | 200° |
| 2026-05-09 06:01 | 42.99576 | -70.75434 | 29888 ft | 482 kts | 200° |
| 2026-05-09 06:01 | 42.93064 | -70.77323 | 29845 ft | 481 kts | 200° |
| 2026-05-09 06:02 | 42.86523 | -70.79228 | 29910 ft | 479 kts | 201° |
| 2026-05-09 06:02 | 42.80031 | -70.81206 | 30058 ft | 478 kts | 202° |
| 2026-05-09 06:03 | 42.73543 | -70.83188 | 30187 ft | 478 kts | 202° |
| 2026-05-09 06:03 | 42.67039 | -70.85145 | 30138 ft | 481 kts | 202° |
| 2026-05-09 06:04 | 42.63772 | -70.86145 | 30034 ft | 482 kts | 202° |
| 2026-05-09 06:04 | 42.60494 | -70.87148 | 29913 ft | 483 kts | 202° |
| 2026-05-09 06:04 | 42.53974 | -70.89231 | 29916 ft | 480 kts | 203° |
| 2026-05-09 06:05 | 42.47503 | -70.91396 | 29928 ft | 478 kts | 204° |
| 2026-05-09 06:05 | 42.41058 | -70.93588 | 29953 ft | 477 kts | 204° |
| 2026-05-09 06:06 | 42.34635 | -70.95807 | 29975 ft | 476 kts | 204° |
| 2026-05-09 06:06 | 42.28238 | -70.98052 | 29984 ft | 473 kts | 206° |
| 2026-05-09 06:07 | 42.22053 | -71.00721 | 30031 ft | 467 kts | 209° |
| 2026-05-09 06:07 | 42.15951 | -71.03674 | 30076 ft | 465 kts | 210° |
| 2026-05-09 06:08 | 42.09880 | -71.06680 | 30123 ft | 465 kts | 211° |
| 2026-05-09 06:08 | 42.03793 | -71.09636 | 30168 ft | 465 kts | 210° |
| 2026-05-09 06:09 | 41.97802 | -71.12793 | 30133 ft | 460 kts | 214° |
| 2026-05-09 06:09 | 41.92138 | -71.16622 | 30066 ft | 453 kts | 219° |
| 2026-05-09 06:10 | 41.86713 | -71.20900 | 29751 ft | 454 kts | 221° |
| 2026-05-09 06:10 | 41.84001 | -71.23093 | 29503 ft | 456 kts | 221° |
| 2026-05-09 06:10 | 41.81293 | -71.25297 | 29260 ft | 454 kts | 221° |
| 2026-05-09 06:11 | 41.78627 | -71.27463 | 29013 ft | 444 kts | 221° |
| 2026-05-09 06:11 | 41.76007 | -71.29591 | 28789 ft | 437 kts | 221° |
| 2026-05-09 06:11 | 41.73465 | -71.31751 | 28568 ft | 430 kts | 223° |
| 2026-05-09 06:11 | 41.71000 | -71.33988 | 28361 ft | 426 kts | 225° |
| 2026-05-09 06:12 | 41.68587 | -71.36276 | 28151 ft | 423 kts | 225° |
| 2026-05-09 06:12 | 41.66218 | -71.38602 | 27959 ft | 421 kts | 226° |
| 2026-05-09 06:12 | 41.63885 | -71.40947 | 27762 ft | 419 kts | 226° |
| 2026-05-09 06:12 | 41.61571 | -71.43312 | 27566 ft | 417 kts | 227° |
| 2026-05-09 06:13 | 41.59280 | -71.45684 | 27391 ft | 416 kts | 227° |
| 2026-05-09 06:13 | 41.57007 | -71.48063 | 27220 ft | 415 kts | 227° |
| 2026-05-09 06:13 | 41.54751 | -71.50451 | 27036 ft | 413 kts | 227° |
| 2026-05-09 06:13 | 41.52507 | -71.52848 | 26867 ft | 412 kts | 228° |
| 2026-05-09 06:14 | 41.50279 | -71.55242 | 26692 ft | 411 kts | 228° |
| 2026-05-09 06:14 | 41.48057 | -71.57633 | 26527 ft | 410 kts | 228° |
| 2026-05-09 06:14 | 41.45842 | -71.60022 | 26369 ft | 409 kts | 228° |
| 2026-05-09 06:14 | 41.43641 | -71.62416 | 26203 ft | 408 kts | 228° |
| 2026-05-09 06:15 | 41.41452 | -71.64818 | 26049 ft | 407 kts | 228° |
| 2026-05-09 06:15 | 41.39279 | -71.67227 | 25892 ft | 406 kts | 229° |
| 2026-05-09 06:15 | 41.37848 | -71.68823 | 25792 ft | 405 kts | 229° |
| 2026-05-09 06:15 | 41.35001 | -71.72023 | 25597 ft | 404 kts | 229° |
| 2026-05-09 06:16 | 41.32864 | -71.74447 | 25452 ft | 403 kts | 229° |
| 2026-05-09 06:16 | 41.30739 | -71.76871 | 25314 ft | 402 kts | 229° |
| 2026-05-09 06:16 | 41.28628 | -71.79301 | 25160 ft | 401 kts | 229° |
| 2026-05-09 06:16 | 41.26530 | -71.81736 | 25025 ft | 400 kts | 230° |
| 2026-05-09 06:17 | 41.24445 | -71.84181 | 24888 ft | 399 kts | 230° |
| 2026-05-09 06:17 | 41.23053 | -71.85826 | 24747 ft | 394 kts | 230° |
| 2026-05-09 06:17 | 41.21041 | -71.88225 | 24512 ft | 381 kts | 231° |
| 2026-05-09 06:17 | 41.19208 | -71.90673 | 24298 ft | 366 kts | 235° |
| 2026-05-09 06:18 | 41.17599 | -71.93152 | 24084 ft | 353 kts | 238° |
| 2026-05-09 06:18 | 41.16176 | -71.95733 | 23908 ft | 343 kts | 243° |
| 2026-05-09 06:18 | 41.14954 | -71.98441 | 23731 ft | 341 kts | 247° |
| 2026-05-09 06:18 | 41.13888 | -72.01242 | 23553 ft | 340 kts | 249° |
| 2026-05-09 06:19 | 41.12866 | -72.04079 | 23350 ft | 341 kts | 249° |
| 2026-05-09 06:19 | 41.11862 | -72.06913 | 23149 ft | 337 kts | 250° |
| 2026-05-09 06:19 | 41.10874 | -72.09721 | 22948 ft | 334 kts | 250° |
| 2026-05-09 06:19 | 41.09904 | -72.12487 | 22739 ft | 327 kts | 250° |
| 2026-05-09 06:20 | 41.08959 | -72.15186 | 22544 ft | 319 kts | 250° |
| 2026-05-09 06:20 | 41.08034 | -72.17823 | 22364 ft | 311 kts | 250° |
| 2026-05-09 06:20 | 41.07124 | -72.20400 | 22121 ft | 306 kts | 250° |
| 2026-05-09 06:20 | 41.06223 | -72.22928 | 21898 ft | 301 kts | 250° |
| 2026-05-09 06:21 | 41.05362 | -72.25416 | 21743 ft | 293 kts | 251° |
| 2026-05-09 06:21 | 41.04544 | -72.27857 | 21574 ft | 287 kts | 251° |
| 2026-05-09 06:21 | 41.03793 | -72.30269 | 21427 ft | 281 kts | 252° |
| 2026-05-09 06:21 | 41.03077 | -72.32665 | 21144 ft | 279 kts | 253° |
| 2026-05-09 06:22 | 41.02424 | -72.35077 | 20864 ft | 277 kts | 255° |
| 2026-05-09 06:22 | 41.01808 | -72.37490 | 20591 ft | 276 kts | 255° |
| 2026-05-09 06:22 | 41.01207 | -72.39895 | 20323 ft | 275 kts | 256° |
| 2026-05-09 06:22 | 41.00625 | -72.42301 | 20058 ft | 274 kts | 256° |
| 2026-05-09 06:23 | 41.00056 | -72.44666 | 19800 ft | 273 kts | 256° |
| 2026-05-09 06:23 | 40.99480 | -72.47056 | 19545 ft | 272 kts | 256° |
| 2026-05-09 06:23 | 40.98903 | -72.49440 | 19301 ft | 271 kts | 256° |
| 2026-05-09 06:23 | 40.98321 | -72.51812 | 19057 ft | 271 kts | 256° |
| 2026-05-09 06:24 | 40.97722 | -72.54179 | 18727 ft | 273 kts | 255° |
| 2026-05-09 06:24 | 40.97115 | -72.56573 | 18350 ft | 276 kts | 255° |
| 2026-05-09 06:24 | 40.96517 | -72.59000 | 17887 ft | 280 kts | 256° |
| 2026-05-09 06:24 | 40.95895 | -72.61461 | 17369 ft | 282 kts | 255° |
| 2026-05-09 06:25 | 40.95254 | -72.63914 | 16813 ft | 282 kts | 254° |
| 2026-05-09 06:25 | 40.94589 | -72.66360 | 16255 ft | 282 kts | 253° |
| 2026-05-09 06:25 | 40.93916 | -72.68798 | 15730 ft | 282 kts | 253° |
| 2026-05-09 06:25 | 40.93240 | -72.71228 | 15200 ft | 281 kts | 253° |
| 2026-05-09 06:26 | 40.92560 | -72.73647 | 14718 ft | 280 kts | 253° |
| 2026-05-09 06:26 | 40.91882 | -72.76045 | 14275 ft | 277 kts | 253° |
| 2026-05-09 06:26 | 40.91189 | -72.78398 | 13875 ft | 273 kts | 251° |
| 2026-05-09 06:26 | 40.90384 | -72.80649 | 13431 ft | 270 kts | 245° |
| 2026-05-09 06:27 | 40.89327 | -72.82689 | 13028 ft | 268 kts | 237° |
| 2026-05-09 06:27 | 40.88080 | -72.84507 | 12657 ft | 265 kts | 231° |
| 2026-05-09 06:27 | 40.86720 | -72.86121 | 12320 ft | 262 kts | 226° |
| 2026-05-09 06:27 | 40.85256 | -72.87522 | 11999 ft | 257 kts | 222° |
| 2026-05-09 06:28 | 40.83784 | -72.88779 | 11672 ft | 251 kts | 220° |
| 2026-05-09 06:28 | 40.82306 | -72.89980 | 11265 ft | 247 kts | 221° |
| 2026-05-09 06:28 | 40.80898 | -72.91219 | 10873 ft | 240 kts | 223° |
| 2026-05-09 06:28 | 40.79590 | -72.92481 | 10538 ft | 232 kts | 225° |
| 2026-05-09 06:29 | 40.78301 | -72.93795 | 10159 ft | 238 kts | 226° |
| 2026-05-09 06:29 | 40.76994 | -72.95155 | 9806 ft | 240 kts | 226° |
| 2026-05-09 06:29 | 40.75675 | -72.96513 | 9390 ft | 241 kts | 225° |
| 2026-05-09 06:29 | 40.74356 | -72.97868 | 8969 ft | 240 kts | 225° |
| 2026-05-09 06:30 | 40.73023 | -72.99211 | 8519 ft | 242 kts | 223° |
| 2026-05-09 06:30 | 40.71674 | -73.00524 | 8160 ft | 240 kts | 223° |
| 2026-05-09 06:30 | 40.70325 | -73.01808 | 7836 ft | 238 kts | 221° |
| 2026-05-09 06:30 | 40.69008 | -73.03092 | 7496 ft | 232 kts | 224° |
| 2026-05-09 06:31 | 40.67869 | -73.04595 | 6965 ft | 233 kts | 236° |
| 2026-05-09 06:31 | 40.67115 | -73.06465 | 6468 ft | 232 kts | 249° |
| 2026-05-09 06:31 | 40.66563 | -73.08496 | 5793 ft | 236 kts | 253° |
| 2026-05-09 06:31 | 40.66093 | -73.10546 | 5299 ft | 231 kts | 253° |
| 2026-05-09 06:32 | 40.65655 | -73.12552 | 4831 ft | 226 kts | 254° |
| 2026-05-09 06:32 | 40.65231 | -73.14524 | 4328 ft | 222 kts | 254° |
| 2026-05-09 06:32 | 40.64813 | -73.16447 | 3964 ft | 215 kts | 254° |
| 2026-05-09 06:33 | 40.63926 | -73.19996 | 3560 ft | 192 kts | 250° |
| 2026-05-09 06:33 | 40.63479 | -73.21535 | 3335 ft | 186 kts | 249° |
| 2026-05-09 06:33 | 40.63014 | -73.23076 | 3207 ft | 177 kts | 249° |
| 2026-05-09 06:34 | 40.62275 | -73.25448 | 2938 ft | 168 kts | 248° |
| 2026-05-09 06:34 | 40.62095 | -73.26014 | 2890 ft | 164 kts | 248° |
| 2026-05-09 06:34 | 40.62065 | -73.26107 | 2889 ft | 163 kts | 248° |
| 2026-05-09 06:34 | 40.61654 | -73.27375 | 2772 ft | 154 kts | 248° |
| 2026-05-09 06:35 | 40.61257 | -73.28583 | 2798 ft | 132 kts | 248° |
| 2026-05-09 06:35 | 40.60889 | -73.29692 | 2851 ft | 127 kts | 247° |
| 2026-05-09 06:35 | 40.60550 | -73.30724 | 2793 ft | 122 kts | 248° |
| 2026-05-09 06:35 | 40.60184 | -73.31866 | 2804 ft | 144 kts | 248° |
| 2026-05-09 06:36 | 40.59808 | -73.33125 | 2891 ft | 151 kts | 249° |
| 2026-05-09 06:36 | 40.59415 | -73.34421 | 3004 ft | 154 kts | 249° |
| 2026-05-09 06:36 | 40.59013 | -73.35740 | 3110 ft | 157 kts | 248° |
| 2026-05-09 06:36 | 40.58627 | -73.37104 | 3159 ft | 159 kts | 251° |
| 2026-05-09 06:37 | 40.58315 | -73.38478 | 3170 ft | 154 kts | 254° |
| 2026-05-09 06:37 | 40.58038 | -73.39837 | 3143 ft | 154 kts | 255° |
| 2026-05-09 06:37 | 40.57759 | -73.41204 | 3069 ft | 155 kts | 255° |
| 2026-05-09 06:37 | 40.57472 | -73.42578 | 3000 ft | 156 kts | 254° |
| 2026-05-09 06:38 | 40.57180 | -73.43935 | 2952 ft | 156 kts | 254° |
| 2026-05-09 06:38 | 40.56873 | -73.45309 | 2894 ft | 157 kts | 253° |
| 2026-05-09 06:38 | 40.56556 | -73.46686 | 2839 ft | 157 kts | 253° |
| 2026-05-09 06:38 | 40.56234 | -73.48062 | 2786 ft | 157 kts | 253° |
| 2026-05-09 06:39 | 40.55908 | -73.49437 | 2730 ft | 158 kts | 252° |
| 2026-05-09 06:39 | 40.55581 | -73.50778 | 2806 ft | 151 kts | 252° |
| 2026-05-09 06:39 | 40.55259 | -73.52070 | 2870 ft | 147 kts | 252° |
| 2026-05-09 06:39 | 40.54936 | -73.53338 | 2911 ft | 145 kts | 251° |
| 2026-05-09 06:40 | 40.54625 | -73.54595 | 2957 ft | 144 kts | 253° |
| 2026-05-09 06:40 | 40.54591 | -73.55929 | 2909 ft | 151 kts | 278° |
| 2026-05-09 06:40 | 40.55109 | -73.57152 | 2893 ft | 158 kts | 308° |
| 2026-05-09 06:40 | 40.55935 | -73.58137 | 2894 ft | 161 kts | 314° |
| 2026-05-09 06:41 | 40.56740 | -73.59192 | 2807 ft | 165 kts | 307° |
| 2026-05-09 06:41 | 40.57421 | -73.60384 | 2707 ft | 162 kts | 301° |
| 2026-05-09 06:41 | 40.58021 | -73.61648 | 2508 ft | 164 kts | 298° |
| 2026-05-09 06:41 | 40.58587 | -73.62965 | 2269 ft | 166 kts | 295° |
| 2026-05-09 06:42 | 40.59134 | -73.64302 | 2099 ft | 166 kts | 295° |
| 2026-05-09 06:42 | 40.59687 | -73.65642 | 1885 ft | 168 kts | 296° |
| 2026-05-09 06:42 | 40.60290 | -73.66953 | 1735 ft | 167 kts | 300° |
| 2026-05-09 06:42 | 40.60900 | -73.68253 | 1511 ft | 166 kts | 298° |
| 2026-05-09 06:43 | 40.61427 | -73.69423 | 1149 ft | 158 kts | 298° |
| 2026-05-09 06:43 | 40.61964 | -73.70618 | 784 ft | 151 kts | 298° |
| 2026-05-09 06:43 | 40.62468 | -73.71786 | 497 ft | 142 kts | 299° |
| 2026-05-09 06:43 | 40.62997 | -73.72937 | 329 ft | 152 kts | 301° |
| 2026-05-09 06:44 | 40.63554 | -73.74134 | 223 ft | 161 kts | 302° |
| 2026-05-09 06:44 | 40.64129 | -73.75382 | 107 ft | 161 kts | 301° |
| 2026-05-09 06:44 | 40.64701 | -73.76653 | 46 ft | 157 kts | 301° |
| 2026-05-09 06:44 | 40.65210 | -73.77781 | 30 ft | 120 kts | 301° |
| 2026-05-09 06:45 | 40.65463 | -73.78333 | 27 ft | 28 kts | 301° |
| 2026-05-09 06:45 | 40.65549 | -73.78528 | 26 ft | 21 kts | 300° |
| 2026-05-09 06:45 | 40.65601 | -73.78675 | 30 ft | 14 kts | 271° |
| 2026-05-09 06:45 | 40.65556 | -73.78733 | 28 ft | 6 kts | 197° |
| 2026-05-09 06:46 | 40.65522 | -73.78714 | 29 ft | 6 kts | 149° |
| 2026-05-09 06:46 | 40.65485 | -73.78664 | 28 ft | 9 kts | 126° |
| 2026-05-09 06:46 | 40.65456 | -73.78606 | 26 ft | 8 kts | 140° |
| 2026-05-09 06:46 | 40.65412 | -73.78546 | 26 ft | 10 kts | 134° |
| 2026-05-09 06:47 | 40.65408 | -73.78540 | 26 ft | 0 kts | 134° |
| 2026-05-09 06:48 | 40.65407 | -73.78539 | 26 ft | 2 kts | 134° |
| 2026-05-09 06:48 | 40.65364 | -73.78493 | 26 ft | 14 kts | 145° |
| 2026-05-09 06:48 | 40.65274 | -73.78429 | 27 ft | 15 kts | 158° |
| 2026-05-09 06:48 | 40.65179 | -73.78430 | 26 ft | 11 kts | 198° |
| 2026-05-09 06:49 | 40.65097 | -73.78464 | 26 ft | 14 kts | 199° |
| 2026-05-09 06:49 | 40.65029 | -73.78447 | 30 ft | 8 kts | 123° |
| 2026-05-09 06:49 | 40.65022 | -73.78405 | 31 ft | 1 kts | 94° |
| 2026-05-09 06:50 | 40.65022 | -73.78411 | 26 ft | 1 kts | 93° |
| 2026-05-09 06:50 | 40.65022 | -73.78417 | 25 ft | 0 kts | 93° |
| 2026-05-09 06:50 | 40.65023 | -73.78419 | 25 ft | 0 kts | 93° |
| 2026-05-09 06:50 | 40.65023 | -73.78421 | 25 ft | 0 kts | 93° |
| 2026-05-09 06:51 | 40.65023 | -73.78443 | 25 ft | 5 kts | 100° |
| 2026-05-09 06:51 | 40.65024 | -73.78456 | 30 ft | 5 kts | 113° |
| 2026-05-09 06:51 | 40.65019 | -73.78411 | 31 ft | 3 kts | 93° |
| 2026-05-09 06:51 | 40.65018 | -73.78404 | 31 ft | 1 kts | 93° |
| 2026-05-09 06:52 | 40.65018 | -73.78400 | 31 ft | 0 kts | 93° |